<?xml version="1.0" encoding="UTF-8" standalone="no" ?>
<gpx xmlns="http://www.topografix.com/GPX/1/1" xmlns:xsi="http://www.w3.org/2001/XMLSchema-instance" xsi:schemaLocation="http://www.topografix.com/GPX/1/1 http://www.topografix.com/GPX/1/1/gpx.xsd" version="1.1" creator="VisuGPX - https://www.visugpx.com">
  <metadata>
    <name>Montbrison-sur-Lez, la Viale</name>
    <desc><![CDATA[Parcours, sans difficultés, effectué, le 15 avril 2010, par 14 randonneurs du SCLapalud. ]]></desc>
  </metadata>
  <trk>
    <name><![CDATA[ACTIVE LOG]]></name>
    <trkseg>
      <trkpt lat="44.4402" lon="5.0251">
        <ele>315.93042</ele>
        <time>2010-04-15T13:53:22Z</time>
      </trkpt>
      <trkpt lat="44.44019" lon="5.02508">
        <ele>318.814331</ele>
        <time>2010-04-15T13:53:33Z</time>
      </trkpt>
      <trkpt lat="44.4402" lon="5.02511">
        <ele>322.178955</ele>
        <time>2010-04-15T13:53:43Z</time>
      </trkpt>
      <trkpt lat="44.44015" lon="5.02518">
        <ele>324.582275</ele>
        <time>2010-04-15T13:54:03Z</time>
      </trkpt>
      <trkpt lat="44.44012" lon="5.02519">
        <ele>324.582275</ele>
        <time>2010-04-15T13:54:52Z</time>
      </trkpt>
      <trkpt lat="44.44009" lon="5.02515">
        <ele>325.062988</ele>
        <time>2010-04-15T13:55:48Z</time>
      </trkpt>
      <trkpt lat="44.44013" lon="5.02524">
        <ele>324.582275</ele>
        <time>2010-04-15T13:56:03Z</time>
      </trkpt>
      <trkpt lat="44.44017" lon="5.02526">
        <ele>324.582275</ele>
        <time>2010-04-15T13:56:28Z</time>
      </trkpt>
      <trkpt lat="44.44014" lon="5.02512">
        <ele>324.101563</ele>
        <time>2010-04-15T13:56:55Z</time>
      </trkpt>
      <trkpt lat="44.44017" lon="5.02516">
        <ele>324.582275</ele>
        <time>2010-04-15T13:57:25Z</time>
      </trkpt>
      <trkpt lat="44.44019" lon="5.02517">
        <ele>324.582275</ele>
        <time>2010-04-15T13:57:46Z</time>
      </trkpt>
      <trkpt lat="44.44024" lon="5.0251">
        <ele>324.582275</ele>
        <time>2010-04-15T13:57:59Z</time>
      </trkpt>
      <trkpt lat="44.44029" lon="5.02502">
        <ele>325.062988</ele>
        <time>2010-04-15T13:58:10Z</time>
      </trkpt>
      <trkpt lat="44.44027" lon="5.0251">
        <ele>324.582275</ele>
        <time>2010-04-15T13:58:25Z</time>
      </trkpt>
      <trkpt lat="44.44017" lon="5.02518">
        <ele>325.062988</ele>
        <time>2010-04-15T13:58:48Z</time>
      </trkpt>
      <trkpt lat="44.44017" lon="5.02516">
        <ele>325.062988</ele>
        <time>2010-04-15T13:59:05Z</time>
      </trkpt>
      <trkpt lat="44.44016" lon="5.0251">
        <ele>325.062988</ele>
        <time>2010-04-15T13:59:20Z</time>
      </trkpt>
      <trkpt lat="44.44017" lon="5.02515">
        <ele>325.543579</ele>
        <time>2010-04-15T13:59:40Z</time>
      </trkpt>
      <trkpt lat="44.44017" lon="5.02516">
        <ele>325.543579</ele>
        <time>2010-04-15T14:00:18Z</time>
      </trkpt>
      <trkpt lat="44.44016" lon="5.02517">
        <ele>325.543579</ele>
        <time>2010-04-15T14:00:49Z</time>
      </trkpt>
      <trkpt lat="44.44016" lon="5.02518">
        <ele>325.543579</ele>
        <time>2010-04-15T14:01:36Z</time>
      </trkpt>
      <trkpt lat="44.44024" lon="5.02509">
        <ele>325.543579</ele>
        <time>2010-04-15T14:01:55Z</time>
      </trkpt>
      <trkpt lat="44.44034" lon="5.02513">
        <ele>326.504883</ele>
        <time>2010-04-15T14:02:11Z</time>
      </trkpt>
      <trkpt lat="44.44033" lon="5.02518">
        <ele>326.985596</ele>
        <time>2010-04-15T14:02:35Z</time>
      </trkpt>
      <trkpt lat="44.44037" lon="5.02537">
        <ele>328.427612</ele>
        <time>2010-04-15T14:02:52Z</time>
      </trkpt>
      <trkpt lat="44.44037" lon="5.02541">
        <ele>328.908325</ele>
        <time>2010-04-15T14:02:55Z</time>
      </trkpt>
      <trkpt lat="44.44034" lon="5.0256">
        <ele>330.35022</ele>
        <time>2010-04-15T14:03:12Z</time>
      </trkpt>
      <trkpt lat="44.4403" lon="5.02574">
        <ele>332.272827</ele>
        <time>2010-04-15T14:03:24Z</time>
      </trkpt>
      <trkpt lat="44.44034" lon="5.02585">
        <ele>333.234131</ele>
        <time>2010-04-15T14:03:34Z</time>
      </trkpt>
      <trkpt lat="44.44033" lon="5.02596">
        <ele>334.195435</ele>
        <time>2010-04-15T14:03:45Z</time>
      </trkpt>
      <trkpt lat="44.44022" lon="5.02612">
        <ele>337.079468</ele>
        <time>2010-04-15T14:04:03Z</time>
      </trkpt>
      <trkpt lat="44.44016" lon="5.02625">
        <ele>339.482666</ele>
        <time>2010-04-15T14:04:18Z</time>
      </trkpt>
      <trkpt lat="44.44012" lon="5.02645">
        <ele>340.444092</ele>
        <time>2010-04-15T14:04:37Z</time>
      </trkpt>
      <trkpt lat="44.44008" lon="5.02659">
        <ele>340.924683</ele>
        <time>2010-04-15T14:04:47Z</time>
      </trkpt>
      <trkpt lat="44.44001" lon="5.0269">
        <ele>341.885986</ele>
        <time>2010-04-15T14:05:11Z</time>
      </trkpt>
      <trkpt lat="44.43996" lon="5.02714">
        <ele>342.84729</ele>
        <time>2010-04-15T14:05:29Z</time>
      </trkpt>
      <trkpt lat="44.43992" lon="5.02737">
        <ele>343.808594</ele>
        <time>2010-04-15T14:05:46Z</time>
      </trkpt>
      <trkpt lat="44.43998" lon="5.02762">
        <ele>344.289429</ele>
        <time>2010-04-15T14:06:05Z</time>
      </trkpt>
      <trkpt lat="44.44015" lon="5.02769">
        <ele>343.327881</ele>
        <time>2010-04-15T14:06:22Z</time>
      </trkpt>
      <trkpt lat="44.44039" lon="5.02777">
        <ele>342.84729</ele>
        <time>2010-04-15T14:06:47Z</time>
      </trkpt>
      <trkpt lat="44.44061" lon="5.02785">
        <ele>343.808594</ele>
        <time>2010-04-15T14:07:11Z</time>
      </trkpt>
      <trkpt lat="44.44076" lon="5.02794">
        <ele>346.212036</ele>
        <time>2010-04-15T14:07:30Z</time>
      </trkpt>
      <trkpt lat="44.44088" lon="5.02802">
        <ele>347.173218</ele>
        <time>2010-04-15T14:07:46Z</time>
      </trkpt>
      <trkpt lat="44.44101" lon="5.02812">
        <ele>349.095825</ele>
        <time>2010-04-15T14:08:03Z</time>
      </trkpt>
      <trkpt lat="44.44113" lon="5.02824">
        <ele>351.018433</ele>
        <time>2010-04-15T14:08:21Z</time>
      </trkpt>
      <trkpt lat="44.44125" lon="5.02836">
        <ele>352.941162</ele>
        <time>2010-04-15T14:08:38Z</time>
      </trkpt>
      <trkpt lat="44.44136" lon="5.02844">
        <ele>354.86377</ele>
        <time>2010-04-15T14:08:52Z</time>
      </trkpt>
      <trkpt lat="44.44142" lon="5.02849">
        <ele>355.825195</ele>
        <time>2010-04-15T14:09:10Z</time>
      </trkpt>
      <trkpt lat="44.44143" lon="5.0285">
        <ele>355.825195</ele>
        <time>2010-04-15T14:09:14Z</time>
      </trkpt>
      <trkpt lat="44.44133" lon="5.02867">
        <ele>354.86377</ele>
        <time>2010-04-15T14:09:29Z</time>
      </trkpt>
      <trkpt lat="44.4413" lon="5.02872">
        <ele>354.383179</ele>
        <time>2010-04-15T14:09:33Z</time>
      </trkpt>
      <trkpt lat="44.44121" lon="5.02887">
        <ele>353.421875</ele>
        <time>2010-04-15T14:09:46Z</time>
      </trkpt>
      <trkpt lat="44.44107" lon="5.02903">
        <ele>352.460571</ele>
        <time>2010-04-15T14:10:00Z</time>
      </trkpt>
      <trkpt lat="44.44093" lon="5.02914">
        <ele>351.018433</ele>
        <time>2010-04-15T14:10:15Z</time>
      </trkpt>
      <trkpt lat="44.44087" lon="5.02921">
        <ele>350.057251</ele>
        <time>2010-04-15T14:10:22Z</time>
      </trkpt>
      <trkpt lat="44.44084" lon="5.02922">
        <ele>349.095825</ele>
        <time>2010-04-15T14:10:25Z</time>
      </trkpt>
      <trkpt lat="44.44081" lon="5.02926">
        <ele>349.095825</ele>
        <time>2010-04-15T14:10:28Z</time>
      </trkpt>
      <trkpt lat="44.44066" lon="5.02942">
        <ele>347.653931</ele>
        <time>2010-04-15T14:10:45Z</time>
      </trkpt>
      <trkpt lat="44.4405" lon="5.02954">
        <ele>345.731323</ele>
        <time>2010-04-15T14:11:01Z</time>
      </trkpt>
      <trkpt lat="44.44038" lon="5.02965">
        <ele>344.77002</ele>
        <time>2010-04-15T14:11:16Z</time>
      </trkpt>
      <trkpt lat="44.44035" lon="5.02971">
        <ele>344.289429</ele>
        <time>2010-04-15T14:11:22Z</time>
      </trkpt>
      <trkpt lat="44.44034" lon="5.02976">
        <ele>343.808594</ele>
        <time>2010-04-15T14:11:25Z</time>
      </trkpt>
      <trkpt lat="44.44031" lon="5.02983">
        <ele>343.327881</ele>
        <time>2010-04-15T14:11:30Z</time>
      </trkpt>
      <trkpt lat="44.44027" lon="5.02988">
        <ele>343.327881</ele>
        <time>2010-04-15T14:11:36Z</time>
      </trkpt>
      <trkpt lat="44.44016" lon="5.03003">
        <ele>342.366699</ele>
        <time>2010-04-15T14:11:52Z</time>
      </trkpt>
      <trkpt lat="44.44008" lon="5.03011">
        <ele>341.405273</ele>
        <time>2010-04-15T14:12:03Z</time>
      </trkpt>
      <trkpt lat="44.43994" lon="5.03024">
        <ele>340.444092</ele>
        <time>2010-04-15T14:12:19Z</time>
      </trkpt>
      <trkpt lat="44.43981" lon="5.03041">
        <ele>340.924683</ele>
        <time>2010-04-15T14:12:35Z</time>
      </trkpt>
      <trkpt lat="44.43969" lon="5.03057">
        <ele>340.444092</ele>
        <time>2010-04-15T14:12:51Z</time>
      </trkpt>
      <trkpt lat="44.43957" lon="5.03078">
        <ele>340.924683</ele>
        <time>2010-04-15T14:13:09Z</time>
      </trkpt>
      <trkpt lat="44.43945" lon="5.03096">
        <ele>340.444092</ele>
        <time>2010-04-15T14:13:27Z</time>
      </trkpt>
      <trkpt lat="44.43938" lon="5.03104">
        <ele>340.924683</ele>
        <time>2010-04-15T14:13:37Z</time>
      </trkpt>
      <trkpt lat="44.43936" lon="5.03108">
        <ele>340.924683</ele>
        <time>2010-04-15T14:13:41Z</time>
      </trkpt>
      <trkpt lat="44.43933" lon="5.03118">
        <ele>341.405273</ele>
        <time>2010-04-15T14:13:51Z</time>
      </trkpt>
      <trkpt lat="44.43919" lon="5.03132">
        <ele>341.405273</ele>
        <time>2010-04-15T14:14:04Z</time>
      </trkpt>
      <trkpt lat="44.43899" lon="5.0315">
        <ele>339.963379</ele>
        <time>2010-04-15T14:14:26Z</time>
      </trkpt>
      <trkpt lat="44.43883" lon="5.03172">
        <ele>339.002075</ele>
        <time>2010-04-15T14:14:46Z</time>
      </trkpt>
      <trkpt lat="44.43882" lon="5.03174">
        <ele>339.002075</ele>
        <time>2010-04-15T14:14:48Z</time>
      </trkpt>
      <trkpt lat="44.43881" lon="5.03176">
        <ele>339.002075</ele>
        <time>2010-04-15T14:14:50Z</time>
      </trkpt>
      <trkpt lat="44.43877" lon="5.03183">
        <ele>339.482666</ele>
        <time>2010-04-15T14:14:56Z</time>
      </trkpt>
      <trkpt lat="44.43873" lon="5.03188">
        <ele>339.482666</ele>
        <time>2010-04-15T14:15:00Z</time>
      </trkpt>
      <trkpt lat="44.43872" lon="5.03196">
        <ele>339.482666</ele>
        <time>2010-04-15T14:15:06Z</time>
      </trkpt>
      <trkpt lat="44.43864" lon="5.03214">
        <ele>340.444092</ele>
        <time>2010-04-15T14:15:20Z</time>
      </trkpt>
      <trkpt lat="44.43862" lon="5.03219">
        <ele>340.444092</ele>
        <time>2010-04-15T14:15:24Z</time>
      </trkpt>
      <trkpt lat="44.43854" lon="5.0323">
        <ele>340.444092</ele>
        <time>2010-04-15T14:15:32Z</time>
      </trkpt>
      <trkpt lat="44.43846" lon="5.03252">
        <ele>342.366699</ele>
        <time>2010-04-15T14:15:50Z</time>
      </trkpt>
      <trkpt lat="44.43845" lon="5.03256">
        <ele>342.84729</ele>
        <time>2010-04-15T14:15:54Z</time>
      </trkpt>
      <trkpt lat="44.43842" lon="5.0326">
        <ele>343.327881</ele>
        <time>2010-04-15T14:15:58Z</time>
      </trkpt>
      <trkpt lat="44.4384" lon="5.03266">
        <ele>344.289429</ele>
        <time>2010-04-15T14:16:03Z</time>
      </trkpt>
      <trkpt lat="44.43837" lon="5.03283">
        <ele>345.731323</ele>
        <time>2010-04-15T14:16:16Z</time>
      </trkpt>
      <trkpt lat="44.43835" lon="5.03288">
        <ele>345.731323</ele>
        <time>2010-04-15T14:16:21Z</time>
      </trkpt>
      <trkpt lat="44.43833" lon="5.03292">
        <ele>346.212036</ele>
        <time>2010-04-15T14:16:25Z</time>
      </trkpt>
      <trkpt lat="44.43832" lon="5.03294">
        <ele>346.212036</ele>
        <time>2010-04-15T14:16:27Z</time>
      </trkpt>
      <trkpt lat="44.43821" lon="5.03311">
        <ele>347.173218</ele>
        <time>2010-04-15T14:16:41Z</time>
      </trkpt>
      <trkpt lat="44.43819" lon="5.03313">
        <ele>347.173218</ele>
        <time>2010-04-15T14:16:43Z</time>
      </trkpt>
      <trkpt lat="44.43811" lon="5.0333">
        <ele>347.173218</ele>
        <time>2010-04-15T14:16:58Z</time>
      </trkpt>
      <trkpt lat="44.43803" lon="5.03346">
        <ele>347.653931</ele>
        <time>2010-04-15T14:17:12Z</time>
      </trkpt>
      <trkpt lat="44.43801" lon="5.03359">
        <ele>348.134644</ele>
        <time>2010-04-15T14:17:23Z</time>
      </trkpt>
      <trkpt lat="44.43799" lon="5.03364">
        <ele>348.134644</ele>
        <time>2010-04-15T14:17:27Z</time>
      </trkpt>
      <trkpt lat="44.43792" lon="5.03383">
        <ele>348.615234</ele>
        <time>2010-04-15T14:17:41Z</time>
      </trkpt>
      <trkpt lat="44.43787" lon="5.03389">
        <ele>348.615234</ele>
        <time>2010-04-15T14:17:46Z</time>
      </trkpt>
      <trkpt lat="44.43781" lon="5.034">
        <ele>349.095825</ele>
        <time>2010-04-15T14:17:54Z</time>
      </trkpt>
      <trkpt lat="44.43777" lon="5.03408">
        <ele>349.095825</ele>
        <time>2010-04-15T14:18:01Z</time>
      </trkpt>
      <trkpt lat="44.43772" lon="5.03424">
        <ele>350.057251</ele>
        <time>2010-04-15T14:18:16Z</time>
      </trkpt>
      <trkpt lat="44.43764" lon="5.03441">
        <ele>350.057251</ele>
        <time>2010-04-15T14:18:28Z</time>
      </trkpt>
      <trkpt lat="44.43762" lon="5.03445">
        <ele>350.057251</ele>
        <time>2010-04-15T14:18:32Z</time>
      </trkpt>
      <trkpt lat="44.43754" lon="5.03464">
        <ele>349.576538</ele>
        <time>2010-04-15T14:18:46Z</time>
      </trkpt>
      <trkpt lat="44.43751" lon="5.03469">
        <ele>349.576538</ele>
        <time>2010-04-15T14:18:50Z</time>
      </trkpt>
      <trkpt lat="44.43744" lon="5.03482">
        <ele>349.576538</ele>
        <time>2010-04-15T14:19:01Z</time>
      </trkpt>
      <trkpt lat="44.43742" lon="5.03485">
        <ele>350.057251</ele>
        <time>2010-04-15T14:19:04Z</time>
      </trkpt>
      <trkpt lat="44.43734" lon="5.0351">
        <ele>351.499146</ele>
        <time>2010-04-15T14:19:23Z</time>
      </trkpt>
      <trkpt lat="44.4373" lon="5.03519">
        <ele>351.499146</ele>
        <time>2010-04-15T14:19:32Z</time>
      </trkpt>
      <trkpt lat="44.43725" lon="5.03534">
        <ele>352.460571</ele>
        <time>2010-04-15T14:19:43Z</time>
      </trkpt>
      <trkpt lat="44.43718" lon="5.03548">
        <ele>352.460571</ele>
        <time>2010-04-15T14:19:57Z</time>
      </trkpt>
      <trkpt lat="44.43715" lon="5.03559">
        <ele>352.460571</ele>
        <time>2010-04-15T14:20:05Z</time>
      </trkpt>
      <trkpt lat="44.43709" lon="5.03574">
        <ele>352.941162</ele>
        <time>2010-04-15T14:20:15Z</time>
      </trkpt>
      <trkpt lat="44.43706" lon="5.03579">
        <ele>352.941162</ele>
        <time>2010-04-15T14:20:18Z</time>
      </trkpt>
      <trkpt lat="44.437" lon="5.0359">
        <ele>353.421875</ele>
        <time>2010-04-15T14:20:26Z</time>
      </trkpt>
      <trkpt lat="44.43696" lon="5.03598">
        <ele>353.421875</ele>
        <time>2010-04-15T14:20:32Z</time>
      </trkpt>
      <trkpt lat="44.43685" lon="5.03614">
        <ele>353.902588</ele>
        <time>2010-04-15T14:20:48Z</time>
      </trkpt>
      <trkpt lat="44.4368" lon="5.03632">
        <ele>354.383179</ele>
        <time>2010-04-15T14:21:01Z</time>
      </trkpt>
      <trkpt lat="44.43677" lon="5.03638">
        <ele>354.86377</ele>
        <time>2010-04-15T14:21:07Z</time>
      </trkpt>
      <trkpt lat="44.43672" lon="5.03663">
        <ele>355.825195</ele>
        <time>2010-04-15T14:21:24Z</time>
      </trkpt>
      <trkpt lat="44.43671" lon="5.03664">
        <ele>355.825195</ele>
        <time>2010-04-15T14:21:25Z</time>
      </trkpt>
      <trkpt lat="44.43664" lon="5.03682">
        <ele>356.305786</ele>
        <time>2010-04-15T14:21:38Z</time>
      </trkpt>
      <trkpt lat="44.43658" lon="5.03696">
        <ele>356.305786</ele>
        <time>2010-04-15T14:21:48Z</time>
      </trkpt>
      <trkpt lat="44.43645" lon="5.03712">
        <ele>355.344482</ele>
        <time>2010-04-15T14:22:07Z</time>
      </trkpt>
      <trkpt lat="44.43641" lon="5.03719">
        <ele>355.344482</ele>
        <time>2010-04-15T14:22:23Z</time>
      </trkpt>
      <trkpt lat="44.43635" lon="5.03721">
        <ele>355.344482</ele>
        <time>2010-04-15T14:22:40Z</time>
      </trkpt>
      <trkpt lat="44.43635" lon="5.0372">
        <ele>354.86377</ele>
        <time>2010-04-15T14:23:25Z</time>
      </trkpt>
      <trkpt lat="44.43635" lon="5.0372">
        <ele>354.86377</ele>
        <time>2010-04-15T14:25:02Z</time>
      </trkpt>
      <trkpt lat="44.43635" lon="5.03721">
        <ele>354.86377</ele>
        <time>2010-04-15T14:25:49Z</time>
      </trkpt>
      <trkpt lat="44.43639" lon="5.03725">
        <ele>354.86377</ele>
        <time>2010-04-15T14:27:08Z</time>
      </trkpt>
      <trkpt lat="44.43648" lon="5.03732">
        <ele>355.344482</ele>
        <time>2010-04-15T14:27:28Z</time>
      </trkpt>
      <trkpt lat="44.43658" lon="5.03737">
        <ele>355.825195</ele>
        <time>2010-04-15T14:27:44Z</time>
      </trkpt>
      <trkpt lat="44.43669" lon="5.03742">
        <ele>356.786377</ele>
        <time>2010-04-15T14:28:01Z</time>
      </trkpt>
      <trkpt lat="44.43684" lon="5.03745">
        <ele>356.305786</ele>
        <time>2010-04-15T14:28:17Z</time>
      </trkpt>
      <trkpt lat="44.43701" lon="5.03752">
        <ele>356.305786</ele>
        <time>2010-04-15T14:28:33Z</time>
      </trkpt>
      <trkpt lat="44.43713" lon="5.03766">
        <ele>356.786377</ele>
        <time>2010-04-15T14:28:46Z</time>
      </trkpt>
      <trkpt lat="44.43718" lon="5.03793">
        <ele>356.786377</ele>
        <time>2010-04-15T14:29:03Z</time>
      </trkpt>
      <trkpt lat="44.43718" lon="5.03807">
        <ele>356.786377</ele>
        <time>2010-04-15T14:29:12Z</time>
      </trkpt>
      <trkpt lat="44.43717" lon="5.03816">
        <ele>356.786377</ele>
        <time>2010-04-15T14:29:17Z</time>
      </trkpt>
      <trkpt lat="44.43716" lon="5.03824">
        <ele>356.786377</ele>
        <time>2010-04-15T14:29:23Z</time>
      </trkpt>
      <trkpt lat="44.43718" lon="5.03833">
        <ele>356.786377</ele>
        <time>2010-04-15T14:29:29Z</time>
      </trkpt>
      <trkpt lat="44.43719" lon="5.03849">
        <ele>357.26709</ele>
        <time>2010-04-15T14:29:40Z</time>
      </trkpt>
      <trkpt lat="44.43739" lon="5.03873">
        <ele>358.228394</ele>
        <time>2010-04-15T14:30:04Z</time>
      </trkpt>
      <trkpt lat="44.43752" lon="5.03883">
        <ele>358.708984</ele>
        <time>2010-04-15T14:30:19Z</time>
      </trkpt>
      <trkpt lat="44.43765" lon="5.03887">
        <ele>359.189697</ele>
        <time>2010-04-15T14:30:33Z</time>
      </trkpt>
      <trkpt lat="44.43777" lon="5.03895">
        <ele>359.189697</ele>
        <time>2010-04-15T14:30:44Z</time>
      </trkpt>
      <trkpt lat="44.43795" lon="5.03914">
        <ele>359.67041</ele>
        <time>2010-04-15T14:31:02Z</time>
      </trkpt>
      <trkpt lat="44.43806" lon="5.03917">
        <ele>359.67041</ele>
        <time>2010-04-15T14:31:14Z</time>
      </trkpt>
      <trkpt lat="44.43808" lon="5.03919">
        <ele>360.151123</ele>
        <time>2010-04-15T14:31:16Z</time>
      </trkpt>
      <trkpt lat="44.43824" lon="5.03932">
        <ele>360.631714</ele>
        <time>2010-04-15T14:31:32Z</time>
      </trkpt>
      <trkpt lat="44.43842" lon="5.03943">
        <ele>361.59314</ele>
        <time>2010-04-15T14:31:49Z</time>
      </trkpt>
      <trkpt lat="44.43846" lon="5.03944">
        <ele>361.59314</ele>
        <time>2010-04-15T14:31:53Z</time>
      </trkpt>
      <trkpt lat="44.43854" lon="5.03946">
        <ele>361.59314</ele>
        <time>2010-04-15T14:32:02Z</time>
      </trkpt>
      <trkpt lat="44.43867" lon="5.0396">
        <ele>362.07373</ele>
        <time>2010-04-15T14:32:17Z</time>
      </trkpt>
      <trkpt lat="44.4388" lon="5.03981">
        <ele>363.035034</ele>
        <time>2010-04-15T14:32:35Z</time>
      </trkpt>
      <trkpt lat="44.43891" lon="5.04004">
        <ele>364.476929</ele>
        <time>2010-04-15T14:32:52Z</time>
      </trkpt>
      <trkpt lat="44.43903" lon="5.04026">
        <ele>366.399536</ele>
        <time>2010-04-15T14:33:11Z</time>
      </trkpt>
      <trkpt lat="44.43918" lon="5.04048">
        <ele>367.841553</ele>
        <time>2010-04-15T14:33:30Z</time>
      </trkpt>
      <trkpt lat="44.43928" lon="5.04066">
        <ele>369.283691</ele>
        <time>2010-04-15T14:33:48Z</time>
      </trkpt>
      <trkpt lat="44.43941" lon="5.04081">
        <ele>371.68689</ele>
        <time>2010-04-15T14:34:06Z</time>
      </trkpt>
      <trkpt lat="44.43955" lon="5.04092">
        <ele>373.609497</ele>
        <time>2010-04-15T14:34:25Z</time>
      </trkpt>
      <trkpt lat="44.43964" lon="5.04097">
        <ele>375.051514</ele>
        <time>2010-04-15T14:34:38Z</time>
      </trkpt>
      <trkpt lat="44.43983" lon="5.04104">
        <ele>377.454834</ele>
        <time>2010-04-15T14:34:59Z</time>
      </trkpt>
      <trkpt lat="44.43995" lon="5.04105">
        <ele>379.377441</ele>
        <time>2010-04-15T14:35:15Z</time>
      </trkpt>
      <trkpt lat="44.44005" lon="5.04104">
        <ele>381.78064</ele>
        <time>2010-04-15T14:35:30Z</time>
      </trkpt>
      <trkpt lat="44.4401" lon="5.04099">
        <ele>382.261353</ele>
        <time>2010-04-15T14:35:45Z</time>
      </trkpt>
      <trkpt lat="44.44012" lon="5.04097">
        <ele>383.703247</ele>
        <time>2010-04-15T14:36:08Z</time>
      </trkpt>
      <trkpt lat="44.44017" lon="5.04095">
        <ele>383.222656</ele>
        <time>2010-04-15T14:36:27Z</time>
      </trkpt>
      <trkpt lat="44.44018" lon="5.04094">
        <ele>383.703247</ele>
        <time>2010-04-15T14:37:24Z</time>
      </trkpt>
      <trkpt lat="44.44019" lon="5.04084">
        <ele>383.703247</ele>
        <time>2010-04-15T14:37:36Z</time>
      </trkpt>
      <trkpt lat="44.44026" lon="5.04079">
        <ele>383.703247</ele>
        <time>2010-04-15T14:37:52Z</time>
      </trkpt>
      <trkpt lat="44.44026" lon="5.04077">
        <ele>383.703247</ele>
        <time>2010-04-15T14:38:32Z</time>
      </trkpt>
      <trkpt lat="44.44027" lon="5.04075">
        <ele>384.184082</ele>
        <time>2010-04-15T14:38:34Z</time>
      </trkpt>
      <trkpt lat="44.44044" lon="5.0406">
        <ele>384.664795</ele>
        <time>2010-04-15T14:38:50Z</time>
      </trkpt>
      <trkpt lat="44.44047" lon="5.04053">
        <ele>385.145386</ele>
        <time>2010-04-15T14:38:54Z</time>
      </trkpt>
      <trkpt lat="44.44052" lon="5.04053">
        <ele>385.145386</ele>
        <time>2010-04-15T14:39:10Z</time>
      </trkpt>
      <trkpt lat="44.44061" lon="5.04045">
        <ele>385.625977</ele>
        <time>2010-04-15T14:39:23Z</time>
      </trkpt>
      <trkpt lat="44.44064" lon="5.04042">
        <ele>385.625977</ele>
        <time>2010-04-15T14:39:26Z</time>
      </trkpt>
      <trkpt lat="44.44067" lon="5.04038">
        <ele>385.625977</ele>
        <time>2010-04-15T14:39:29Z</time>
      </trkpt>
      <trkpt lat="44.44075" lon="5.04033">
        <ele>386.587402</ele>
        <time>2010-04-15T14:39:37Z</time>
      </trkpt>
      <trkpt lat="44.44077" lon="5.0403">
        <ele>386.587402</ele>
        <time>2010-04-15T14:39:39Z</time>
      </trkpt>
      <trkpt lat="44.44082" lon="5.04026">
        <ele>387.067993</ele>
        <time>2010-04-15T14:39:43Z</time>
      </trkpt>
      <trkpt lat="44.44094" lon="5.04019">
        <ele>388.029297</ele>
        <time>2010-04-15T14:39:53Z</time>
      </trkpt>
      <trkpt lat="44.44096" lon="5.04016">
        <ele>388.51001</ele>
        <time>2010-04-15T14:39:57Z</time>
      </trkpt>
      <trkpt lat="44.44101" lon="5.04012">
        <ele>388.51001</ele>
        <time>2010-04-15T14:40:01Z</time>
      </trkpt>
      <trkpt lat="44.44106" lon="5.04006">
        <ele>388.990601</ele>
        <time>2010-04-15T14:40:06Z</time>
      </trkpt>
      <trkpt lat="44.44111" lon="5.04002">
        <ele>388.990601</ele>
        <time>2010-04-15T14:40:11Z</time>
      </trkpt>
      <trkpt lat="44.44122" lon="5.03992">
        <ele>389.951904</ele>
        <time>2010-04-15T14:40:19Z</time>
      </trkpt>
      <trkpt lat="44.44141" lon="5.03976">
        <ele>390.432617</ele>
        <time>2010-04-15T14:40:34Z</time>
      </trkpt>
      <trkpt lat="44.44147" lon="5.03965">
        <ele>390.432617</ele>
        <time>2010-04-15T14:40:40Z</time>
      </trkpt>
      <trkpt lat="44.44157" lon="5.03962">
        <ele>390.913208</ele>
        <time>2010-04-15T14:40:54Z</time>
      </trkpt>
      <trkpt lat="44.44156" lon="5.03962">
        <ele>390.913208</ele>
        <time>2010-04-15T14:40:58Z</time>
      </trkpt>
      <trkpt lat="44.44159" lon="5.03961">
        <ele>391.393799</ele>
        <time>2010-04-15T14:41:01Z</time>
      </trkpt>
      <trkpt lat="44.44161" lon="5.0396">
        <ele>390.913208</ele>
        <time>2010-04-15T14:41:04Z</time>
      </trkpt>
      <trkpt lat="44.44177" lon="5.03951">
        <ele>391.874512</ele>
        <time>2010-04-15T14:41:16Z</time>
      </trkpt>
      <trkpt lat="44.44183" lon="5.03944">
        <ele>391.874512</ele>
        <time>2010-04-15T14:41:22Z</time>
      </trkpt>
      <trkpt lat="44.44194" lon="5.03945">
        <ele>391.874512</ele>
        <time>2010-04-15T14:41:30Z</time>
      </trkpt>
      <trkpt lat="44.44203" lon="5.03949">
        <ele>392.835938</ele>
        <time>2010-04-15T14:41:38Z</time>
      </trkpt>
      <trkpt lat="44.44206" lon="5.0395">
        <ele>392.835938</ele>
        <time>2010-04-15T14:41:40Z</time>
      </trkpt>
      <trkpt lat="44.44222" lon="5.03954">
        <ele>394.277954</ele>
        <time>2010-04-15T14:41:55Z</time>
      </trkpt>
      <trkpt lat="44.44223" lon="5.03954">
        <ele>394.277954</ele>
        <time>2010-04-15T14:41:56Z</time>
      </trkpt>
      <trkpt lat="44.44235" lon="5.03954">
        <ele>394.758545</ele>
        <time>2010-04-15T14:42:04Z</time>
      </trkpt>
      <trkpt lat="44.44236" lon="5.03954">
        <ele>394.758545</ele>
        <time>2010-04-15T14:42:05Z</time>
      </trkpt>
      <trkpt lat="44.44248" lon="5.03953">
        <ele>395.719849</ele>
        <time>2010-04-15T14:42:15Z</time>
      </trkpt>
      <trkpt lat="44.44252" lon="5.03951">
        <ele>395.719849</ele>
        <time>2010-04-15T14:42:18Z</time>
      </trkpt>
      <trkpt lat="44.44277" lon="5.03957">
        <ele>397.642456</ele>
        <time>2010-04-15T14:42:37Z</time>
      </trkpt>
      <trkpt lat="44.4429" lon="5.03954">
        <ele>398.60376</ele>
        <time>2010-04-15T14:42:51Z</time>
      </trkpt>
      <trkpt lat="44.44292" lon="5.03953">
        <ele>399.084351</ele>
        <time>2010-04-15T14:42:54Z</time>
      </trkpt>
      <trkpt lat="44.44299" lon="5.0395">
        <ele>398.60376</ele>
        <time>2010-04-15T14:43:08Z</time>
      </trkpt>
      <trkpt lat="44.44312" lon="5.03943">
        <ele>397.642456</ele>
        <time>2010-04-15T14:43:34Z</time>
      </trkpt>
      <trkpt lat="44.44318" lon="5.03931">
        <ele>396.200562</ele>
        <time>2010-04-15T14:43:43Z</time>
      </trkpt>
      <trkpt lat="44.44319" lon="5.03929">
        <ele>396.200562</ele>
        <time>2010-04-15T14:43:45Z</time>
      </trkpt>
      <trkpt lat="44.44321" lon="5.03926">
        <ele>395.719849</ele>
        <time>2010-04-15T14:43:48Z</time>
      </trkpt>
      <trkpt lat="44.4432" lon="5.03917">
        <ele>395.239136</ele>
        <time>2010-04-15T14:43:54Z</time>
      </trkpt>
      <trkpt lat="44.44324" lon="5.03896">
        <ele>394.758545</ele>
        <time>2010-04-15T14:44:05Z</time>
      </trkpt>
      <trkpt lat="44.44325" lon="5.03891">
        <ele>394.758545</ele>
        <time>2010-04-15T14:44:08Z</time>
      </trkpt>
      <trkpt lat="44.44325" lon="5.03883">
        <ele>394.277954</ele>
        <time>2010-04-15T14:44:24Z</time>
      </trkpt>
      <trkpt lat="44.44331" lon="5.03868">
        <ele>394.277954</ele>
        <time>2010-04-15T14:44:39Z</time>
      </trkpt>
      <trkpt lat="44.44334" lon="5.03854">
        <ele>393.797241</ele>
        <time>2010-04-15T14:44:51Z</time>
      </trkpt>
      <trkpt lat="44.44331" lon="5.03849">
        <ele>393.797241</ele>
        <time>2010-04-15T14:44:58Z</time>
      </trkpt>
      <trkpt lat="44.4433" lon="5.03845">
        <ele>393.316528</ele>
        <time>2010-04-15T14:45:08Z</time>
      </trkpt>
      <trkpt lat="44.44321" lon="5.03845">
        <ele>394.758545</ele>
        <time>2010-04-15T14:45:19Z</time>
      </trkpt>
      <trkpt lat="44.44308" lon="5.0385">
        <ele>396.681152</ele>
        <time>2010-04-15T14:45:33Z</time>
      </trkpt>
      <trkpt lat="44.44297" lon="5.03863">
        <ele>397.161743</ele>
        <time>2010-04-15T14:45:48Z</time>
      </trkpt>
      <trkpt lat="44.44289" lon="5.03865">
        <ele>396.681152</ele>
        <time>2010-04-15T14:45:56Z</time>
      </trkpt>
      <trkpt lat="44.44282" lon="5.03866">
        <ele>396.681152</ele>
        <time>2010-04-15T14:46:01Z</time>
      </trkpt>
      <trkpt lat="44.44272" lon="5.03868">
        <ele>396.681152</ele>
        <time>2010-04-15T14:46:13Z</time>
      </trkpt>
      <trkpt lat="44.44268" lon="5.03865">
        <ele>396.200562</ele>
        <time>2010-04-15T14:46:19Z</time>
      </trkpt>
      <trkpt lat="44.44261" lon="5.03863">
        <ele>397.161743</ele>
        <time>2010-04-15T14:46:24Z</time>
      </trkpt>
      <trkpt lat="44.44252" lon="5.03856">
        <ele>398.123169</ele>
        <time>2010-04-15T14:46:35Z</time>
      </trkpt>
      <trkpt lat="44.4424" lon="5.03845">
        <ele>399.565063</ele>
        <time>2010-04-15T14:46:53Z</time>
      </trkpt>
      <trkpt lat="44.44229" lon="5.03838">
        <ele>401.487793</ele>
        <time>2010-04-15T14:47:05Z</time>
      </trkpt>
      <trkpt lat="44.44228" lon="5.03837">
        <ele>401.00708</ele>
        <time>2010-04-15T14:47:06Z</time>
      </trkpt>
      <trkpt lat="44.44218" lon="5.03835">
        <ele>401.00708</ele>
        <time>2010-04-15T14:47:15Z</time>
      </trkpt>
      <trkpt lat="44.44215" lon="5.03834">
        <ele>401.00708</ele>
        <time>2010-04-15T14:47:19Z</time>
      </trkpt>
      <trkpt lat="44.44211" lon="5.03829">
        <ele>401.00708</ele>
        <time>2010-04-15T14:47:24Z</time>
      </trkpt>
      <trkpt lat="44.4421" lon="5.03827">
        <ele>401.487793</ele>
        <time>2010-04-15T14:47:26Z</time>
      </trkpt>
      <trkpt lat="44.44213" lon="5.0382">
        <ele>402.449097</ele>
        <time>2010-04-15T14:47:32Z</time>
      </trkpt>
      <trkpt lat="44.44214" lon="5.0382">
        <ele>402.449097</ele>
        <time>2010-04-15T14:47:34Z</time>
      </trkpt>
      <trkpt lat="44.44223" lon="5.03826">
        <ele>403.4104</ele>
        <time>2010-04-15T14:47:45Z</time>
      </trkpt>
      <trkpt lat="44.44234" lon="5.03824">
        <ele>404.852295</ele>
        <time>2010-04-15T14:48:00Z</time>
      </trkpt>
      <trkpt lat="44.44247" lon="5.03816">
        <ele>407.255615</ele>
        <time>2010-04-15T14:48:18Z</time>
      </trkpt>
      <trkpt lat="44.4426" lon="5.0381">
        <ele>409.178345</ele>
        <time>2010-04-15T14:48:35Z</time>
      </trkpt>
      <trkpt lat="44.44272" lon="5.03805">
        <ele>411.100952</ele>
        <time>2010-04-15T14:48:54Z</time>
      </trkpt>
      <trkpt lat="44.44281" lon="5.03802">
        <ele>413.02356</ele>
        <time>2010-04-15T14:49:10Z</time>
      </trkpt>
      <trkpt lat="44.44302" lon="5.03782">
        <ele>415.42688</ele>
        <time>2010-04-15T14:49:31Z</time>
      </trkpt>
      <trkpt lat="44.44304" lon="5.03781">
        <ele>415.907471</ele>
        <time>2010-04-15T14:49:33Z</time>
      </trkpt>
      <trkpt lat="44.44313" lon="5.03768">
        <ele>416.868896</ele>
        <time>2010-04-15T14:49:47Z</time>
      </trkpt>
      <trkpt lat="44.44316" lon="5.03759">
        <ele>417.8302</ele>
        <time>2010-04-15T14:50:00Z</time>
      </trkpt>
      <trkpt lat="44.44317" lon="5.03751">
        <ele>418.791504</ele>
        <time>2010-04-15T14:50:07Z</time>
      </trkpt>
      <trkpt lat="44.44323" lon="5.0374">
        <ele>420.714111</ele>
        <time>2010-04-15T14:50:18Z</time>
      </trkpt>
      <trkpt lat="44.44321" lon="5.0373">
        <ele>421.194824</ele>
        <time>2010-04-15T14:50:27Z</time>
      </trkpt>
      <trkpt lat="44.44321" lon="5.03725">
        <ele>421.194824</ele>
        <time>2010-04-15T14:50:31Z</time>
      </trkpt>
      <trkpt lat="44.44312" lon="5.03724">
        <ele>423.117432</ele>
        <time>2010-04-15T14:50:41Z</time>
      </trkpt>
      <trkpt lat="44.4431" lon="5.03723">
        <ele>422.636719</ele>
        <time>2010-04-15T14:50:43Z</time>
      </trkpt>
      <trkpt lat="44.443" lon="5.03718">
        <ele>424.559448</ele>
        <time>2010-04-15T14:50:56Z</time>
      </trkpt>
      <trkpt lat="44.4428" lon="5.03719">
        <ele>425.520752</ele>
        <time>2010-04-15T14:51:18Z</time>
      </trkpt>
      <trkpt lat="44.44265" lon="5.03717">
        <ele>426.482056</ele>
        <time>2010-04-15T14:51:34Z</time>
      </trkpt>
      <trkpt lat="44.44252" lon="5.03718">
        <ele>426.962769</ele>
        <time>2010-04-15T14:51:49Z</time>
      </trkpt>
      <trkpt lat="44.44241" lon="5.03713">
        <ele>428.404663</ele>
        <time>2010-04-15T14:52:05Z</time>
      </trkpt>
      <trkpt lat="44.44241" lon="5.03707">
        <ele>428.404663</ele>
        <time>2010-04-15T14:52:10Z</time>
      </trkpt>
      <trkpt lat="44.44247" lon="5.03697">
        <ele>430.807983</ele>
        <time>2010-04-15T14:52:27Z</time>
      </trkpt>
      <trkpt lat="44.44258" lon="5.03683">
        <ele>433.691895</ele>
        <time>2010-04-15T14:52:45Z</time>
      </trkpt>
      <trkpt lat="44.44265" lon="5.03676">
        <ele>435.614502</ele>
        <time>2010-04-15T14:53:03Z</time>
      </trkpt>
      <trkpt lat="44.44276" lon="5.0367">
        <ele>437.056519</ele>
        <time>2010-04-15T14:53:20Z</time>
      </trkpt>
      <trkpt lat="44.44287" lon="5.03663">
        <ele>438.017822</ele>
        <time>2010-04-15T14:53:32Z</time>
      </trkpt>
      <trkpt lat="44.44297" lon="5.03652">
        <ele>439.94043</ele>
        <time>2010-04-15T14:53:48Z</time>
      </trkpt>
      <trkpt lat="44.44304" lon="5.03641">
        <ele>440.901855</ele>
        <time>2010-04-15T14:54:01Z</time>
      </trkpt>
      <trkpt lat="44.44308" lon="5.03628">
        <ele>442.824463</ele>
        <time>2010-04-15T14:54:14Z</time>
      </trkpt>
      <trkpt lat="44.4432" lon="5.03611">
        <ele>444.266479</ele>
        <time>2010-04-15T14:54:34Z</time>
      </trkpt>
      <trkpt lat="44.44327" lon="5.03601">
        <ele>445.227661</ele>
        <time>2010-04-15T14:54:43Z</time>
      </trkpt>
      <trkpt lat="44.44329" lon="5.03584">
        <ele>446.189087</ele>
        <time>2010-04-15T14:54:58Z</time>
      </trkpt>
      <trkpt lat="44.44337" lon="5.03575">
        <ele>447.630981</ele>
        <time>2010-04-15T14:55:17Z</time>
      </trkpt>
      <trkpt lat="44.44341" lon="5.03566">
        <ele>448.111816</ele>
        <time>2010-04-15T14:55:51Z</time>
      </trkpt>
      <trkpt lat="44.44344" lon="5.03571">
        <ele>448.592407</ele>
        <time>2010-04-15T14:59:54Z</time>
      </trkpt>
      <trkpt lat="44.44354" lon="5.03561">
        <ele>449.072998</ele>
        <time>2010-04-15T15:00:59Z</time>
      </trkpt>
      <trkpt lat="44.44361" lon="5.0355">
        <ele>450.515015</ele>
        <time>2010-04-15T15:01:13Z</time>
      </trkpt>
      <trkpt lat="44.44365" lon="5.03544">
        <ele>451.476318</ele>
        <time>2010-04-15T15:01:21Z</time>
      </trkpt>
      <trkpt lat="44.44376" lon="5.03536">
        <ele>453.398926</ele>
        <time>2010-04-15T15:01:38Z</time>
      </trkpt>
      <trkpt lat="44.44384" lon="5.03523">
        <ele>455.802246</ele>
        <time>2010-04-15T15:01:55Z</time>
      </trkpt>
      <trkpt lat="44.444" lon="5.03513">
        <ele>457.724976</ele>
        <time>2010-04-15T15:02:14Z</time>
      </trkpt>
      <trkpt lat="44.44408" lon="5.0351">
        <ele>459.16687</ele>
        <time>2010-04-15T15:02:26Z</time>
      </trkpt>
      <trkpt lat="44.4442" lon="5.03502">
        <ele>461.57019</ele>
        <time>2010-04-15T15:02:43Z</time>
      </trkpt>
      <trkpt lat="44.44427" lon="5.03501">
        <ele>462.050781</ele>
        <time>2010-04-15T15:02:49Z</time>
      </trkpt>
      <trkpt lat="44.44438" lon="5.03506">
        <ele>463.973389</ele>
        <time>2010-04-15T15:03:05Z</time>
      </trkpt>
      <trkpt lat="44.44449" lon="5.03508">
        <ele>465.896118</ele>
        <time>2010-04-15T15:03:22Z</time>
      </trkpt>
      <trkpt lat="44.44459" lon="5.03515">
        <ele>466.857422</ele>
        <time>2010-04-15T15:03:34Z</time>
      </trkpt>
      <trkpt lat="44.44474" lon="5.03524">
        <ele>468.299316</ele>
        <time>2010-04-15T15:03:51Z</time>
      </trkpt>
      <trkpt lat="44.44485" lon="5.03537">
        <ele>469.260742</ele>
        <time>2010-04-15T15:04:07Z</time>
      </trkpt>
      <trkpt lat="44.4449" lon="5.03537">
        <ele>469.260742</ele>
        <time>2010-04-15T15:04:11Z</time>
      </trkpt>
      <trkpt lat="44.44502" lon="5.03538">
        <ele>470.702637</ele>
        <time>2010-04-15T15:04:24Z</time>
      </trkpt>
      <trkpt lat="44.44506" lon="5.03539">
        <ele>471.18335</ele>
        <time>2010-04-15T15:04:29Z</time>
      </trkpt>
      <trkpt lat="44.44518" lon="5.03545">
        <ele>472.625366</ele>
        <time>2010-04-15T15:04:45Z</time>
      </trkpt>
      <trkpt lat="44.44527" lon="5.03548">
        <ele>474.067261</ele>
        <time>2010-04-15T15:04:55Z</time>
      </trkpt>
      <trkpt lat="44.44536" lon="5.03552">
        <ele>476.470581</ele>
        <time>2010-04-15T15:05:07Z</time>
      </trkpt>
      <trkpt lat="44.4455" lon="5.03551">
        <ele>478.393188</ele>
        <time>2010-04-15T15:05:23Z</time>
      </trkpt>
      <trkpt lat="44.44559" lon="5.03554">
        <ele>479.835083</ele>
        <time>2010-04-15T15:05:35Z</time>
      </trkpt>
      <trkpt lat="44.44566" lon="5.03558">
        <ele>479.354492</ele>
        <time>2010-04-15T15:05:44Z</time>
      </trkpt>
      <trkpt lat="44.44569" lon="5.0356">
        <ele>479.354492</ele>
        <time>2010-04-15T15:05:47Z</time>
      </trkpt>
      <trkpt lat="44.44573" lon="5.03565">
        <ele>477.912476</ele>
        <time>2010-04-15T15:05:53Z</time>
      </trkpt>
      <trkpt lat="44.44583" lon="5.03572">
        <ele>477.431885</ele>
        <time>2010-04-15T15:06:10Z</time>
      </trkpt>
      <trkpt lat="44.44592" lon="5.03586">
        <ele>478.393188</ele>
        <time>2010-04-15T15:06:27Z</time>
      </trkpt>
      <trkpt lat="44.44596" lon="5.03594">
        <ele>479.354492</ele>
        <time>2010-04-15T15:06:35Z</time>
      </trkpt>
      <trkpt lat="44.44603" lon="5.03613">
        <ele>480.315918</ele>
        <time>2010-04-15T15:06:51Z</time>
      </trkpt>
      <trkpt lat="44.44604" lon="5.03614">
        <ele>480.315918</ele>
        <time>2010-04-15T15:06:52Z</time>
      </trkpt>
      <trkpt lat="44.44607" lon="5.03626">
        <ele>481.277222</ele>
        <time>2010-04-15T15:07:02Z</time>
      </trkpt>
      <trkpt lat="44.44613" lon="5.03642">
        <ele>482.719238</ele>
        <time>2010-04-15T15:07:17Z</time>
      </trkpt>
      <trkpt lat="44.44613" lon="5.03643">
        <ele>482.719238</ele>
        <time>2010-04-15T15:07:18Z</time>
      </trkpt>
      <trkpt lat="44.44626" lon="5.03652">
        <ele>483.68042</ele>
        <time>2010-04-15T15:07:33Z</time>
      </trkpt>
      <trkpt lat="44.44637" lon="5.03654">
        <ele>485.122437</ele>
        <time>2010-04-15T15:07:46Z</time>
      </trkpt>
      <trkpt lat="44.4464" lon="5.03655">
        <ele>485.122437</ele>
        <time>2010-04-15T15:07:49Z</time>
      </trkpt>
      <trkpt lat="44.44651" lon="5.03652">
        <ele>487.045044</ele>
        <time>2010-04-15T15:08:03Z</time>
      </trkpt>
      <trkpt lat="44.44665" lon="5.03646">
        <ele>489.448364</ele>
        <time>2010-04-15T15:08:23Z</time>
      </trkpt>
      <trkpt lat="44.44674" lon="5.0364">
        <ele>491.370972</ele>
        <time>2010-04-15T15:08:36Z</time>
      </trkpt>
      <trkpt lat="44.44682" lon="5.03631">
        <ele>492.332397</ele>
        <time>2010-04-15T15:08:52Z</time>
      </trkpt>
      <trkpt lat="44.4469" lon="5.03623">
        <ele>494.735596</ele>
        <time>2010-04-15T15:09:10Z</time>
      </trkpt>
      <trkpt lat="44.4469" lon="5.03624">
        <ele>495.216187</ele>
        <time>2010-04-15T15:09:50Z</time>
      </trkpt>
      <trkpt lat="44.44692" lon="5.03622">
        <ele>495.696899</ele>
        <time>2010-04-15T15:12:52Z</time>
      </trkpt>
      <trkpt lat="44.44692" lon="5.03621">
        <ele>495.216187</ele>
        <time>2010-04-15T15:14:59Z</time>
      </trkpt>
      <trkpt lat="44.44692" lon="5.03616">
        <ele>496.658325</ele>
        <time>2010-04-15T15:17:22Z</time>
      </trkpt>
      <trkpt lat="44.44691" lon="5.03604">
        <ele>499.542236</ele>
        <time>2010-04-15T15:17:40Z</time>
      </trkpt>
      <trkpt lat="44.44687" lon="5.0359">
        <ele>500.022949</ele>
        <time>2010-04-15T15:17:55Z</time>
      </trkpt>
      <trkpt lat="44.44685" lon="5.03575">
        <ele>500.022949</ele>
        <time>2010-04-15T15:18:07Z</time>
      </trkpt>
      <trkpt lat="44.44683" lon="5.03567">
        <ele>500.022949</ele>
        <time>2010-04-15T15:18:14Z</time>
      </trkpt>
      <trkpt lat="44.44679" lon="5.03562">
        <ele>499.542236</ele>
        <time>2010-04-15T15:18:20Z</time>
      </trkpt>
      <trkpt lat="44.44674" lon="5.03561">
        <ele>500.50354</ele>
        <time>2010-04-15T15:18:25Z</time>
      </trkpt>
      <trkpt lat="44.44666" lon="5.03559">
        <ele>500.022949</ele>
        <time>2010-04-15T15:18:40Z</time>
      </trkpt>
      <trkpt lat="44.44649" lon="5.0356">
        <ele>498.580933</ele>
        <time>2010-04-15T15:18:59Z</time>
      </trkpt>
      <trkpt lat="44.44641" lon="5.03559">
        <ele>497.138916</ele>
        <time>2010-04-15T15:19:13Z</time>
      </trkpt>
      <trkpt lat="44.44633" lon="5.03559">
        <ele>495.216187</ele>
        <time>2010-04-15T15:19:26Z</time>
      </trkpt>
      <trkpt lat="44.44623" lon="5.0356">
        <ele>493.774292</ele>
        <time>2010-04-15T15:19:37Z</time>
      </trkpt>
      <trkpt lat="44.44608" lon="5.03552">
        <ele>492.332397</ele>
        <time>2010-04-15T15:19:56Z</time>
      </trkpt>
      <trkpt lat="44.44599" lon="5.03548">
        <ele>490.890381</ele>
        <time>2010-04-15T15:20:10Z</time>
      </trkpt>
      <trkpt lat="44.44588" lon="5.03537">
        <ele>490.40979</ele>
        <time>2010-04-15T15:20:27Z</time>
      </trkpt>
      <trkpt lat="44.4457" lon="5.03528">
        <ele>488.967773</ele>
        <time>2010-04-15T15:20:50Z</time>
      </trkpt>
      <trkpt lat="44.44555" lon="5.03521">
        <ele>488.487183</ele>
        <time>2010-04-15T15:21:08Z</time>
      </trkpt>
      <trkpt lat="44.44549" lon="5.03516">
        <ele>488.00647</ele>
        <time>2010-04-15T15:21:17Z</time>
      </trkpt>
      <trkpt lat="44.44539" lon="5.03507">
        <ele>487.045044</ele>
        <time>2010-04-15T15:21:29Z</time>
      </trkpt>
      <trkpt lat="44.44527" lon="5.035">
        <ele>486.08374</ele>
        <time>2010-04-15T15:21:45Z</time>
      </trkpt>
      <trkpt lat="44.44515" lon="5.03508">
        <ele>484.161133</ele>
        <time>2010-04-15T15:22:05Z</time>
      </trkpt>
      <trkpt lat="44.44498" lon="5.03506">
        <ele>482.719238</ele>
        <time>2010-04-15T15:22:23Z</time>
      </trkpt>
      <trkpt lat="44.44493" lon="5.03507">
        <ele>483.199829</ele>
        <time>2010-04-15T15:22:28Z</time>
      </trkpt>
      <trkpt lat="44.44478" lon="5.03499">
        <ele>483.199829</ele>
        <time>2010-04-15T15:22:43Z</time>
      </trkpt>
      <trkpt lat="44.44468" lon="5.03484">
        <ele>483.199829</ele>
        <time>2010-04-15T15:23:00Z</time>
      </trkpt>
      <trkpt lat="44.44464" lon="5.03482">
        <ele>483.199829</ele>
        <time>2010-04-15T15:23:04Z</time>
      </trkpt>
      <trkpt lat="44.44459" lon="5.03468">
        <ele>483.199829</ele>
        <time>2010-04-15T15:23:14Z</time>
      </trkpt>
      <trkpt lat="44.44449" lon="5.03459">
        <ele>482.719238</ele>
        <time>2010-04-15T15:23:29Z</time>
      </trkpt>
      <trkpt lat="44.44435" lon="5.0345">
        <ele>481.277222</ele>
        <time>2010-04-15T15:23:47Z</time>
      </trkpt>
      <trkpt lat="44.4444" lon="5.03439">
        <ele>483.68042</ele>
        <time>2010-04-15T15:24:01Z</time>
      </trkpt>
      <trkpt lat="44.44445" lon="5.03427">
        <ele>486.564453</ele>
        <time>2010-04-15T15:24:14Z</time>
      </trkpt>
      <trkpt lat="44.44449" lon="5.03417">
        <ele>488.487183</ele>
        <time>2010-04-15T15:24:27Z</time>
      </trkpt>
      <trkpt lat="44.44454" lon="5.03416">
        <ele>490.890381</ele>
        <time>2010-04-15T15:24:39Z</time>
      </trkpt>
      <trkpt lat="44.4446" lon="5.03413">
        <ele>494.255005</ele>
        <time>2010-04-15T15:24:52Z</time>
      </trkpt>
      <trkpt lat="44.44467" lon="5.0341">
        <ele>497.138916</ele>
        <time>2010-04-15T15:25:06Z</time>
      </trkpt>
      <trkpt lat="44.44469" lon="5.03411">
        <ele>495.696899</ele>
        <time>2010-04-15T15:25:12Z</time>
      </trkpt>
      <trkpt lat="44.44476" lon="5.03412">
        <ele>496.177734</ele>
        <time>2010-04-15T15:25:27Z</time>
      </trkpt>
      <trkpt lat="44.44486" lon="5.03416">
        <ele>499.542236</ele>
        <time>2010-04-15T15:25:45Z</time>
      </trkpt>
      <trkpt lat="44.44497" lon="5.03413">
        <ele>500.984131</ele>
        <time>2010-04-15T15:26:01Z</time>
      </trkpt>
      <trkpt lat="44.44504" lon="5.03414">
        <ele>503.387451</ele>
        <time>2010-04-15T15:26:14Z</time>
      </trkpt>
      <trkpt lat="44.44513" lon="5.03416">
        <ele>505.310181</ele>
        <time>2010-04-15T15:26:28Z</time>
      </trkpt>
      <trkpt lat="44.44515" lon="5.0342">
        <ele>507.232788</ele>
        <time>2010-04-15T15:26:42Z</time>
      </trkpt>
      <trkpt lat="44.44521" lon="5.03424">
        <ele>508.194092</ele>
        <time>2010-04-15T15:26:57Z</time>
      </trkpt>
      <trkpt lat="44.44527" lon="5.03427">
        <ele>509.155396</ele>
        <time>2010-04-15T15:27:09Z</time>
      </trkpt>
      <trkpt lat="44.4453" lon="5.03426">
        <ele>510.116699</ele>
        <time>2010-04-15T15:27:35Z</time>
      </trkpt>
      <trkpt lat="44.44531" lon="5.03432">
        <ele>511.078003</ele>
        <time>2010-04-15T15:27:58Z</time>
      </trkpt>
      <trkpt lat="44.44532" lon="5.0343">
        <ele>510.59729</ele>
        <time>2010-04-15T15:28:25Z</time>
      </trkpt>
      <trkpt lat="44.44531" lon="5.03423">
        <ele>509.636108</ele>
        <time>2010-04-15T15:30:34Z</time>
      </trkpt>
      <trkpt lat="44.44532" lon="5.03424">
        <ele>510.116699</ele>
        <time>2010-04-15T15:31:19Z</time>
      </trkpt>
      <trkpt lat="44.44531" lon="5.03426">
        <ele>510.59729</ele>
        <time>2010-04-15T15:31:37Z</time>
      </trkpt>
      <trkpt lat="44.44523" lon="5.03418">
        <ele>507.713501</ele>
        <time>2010-04-15T15:36:01Z</time>
      </trkpt>
      <trkpt lat="44.44515" lon="5.03409">
        <ele>504.829468</ele>
        <time>2010-04-15T15:36:16Z</time>
      </trkpt>
      <trkpt lat="44.44507" lon="5.03398">
        <ele>501.464844</ele>
        <time>2010-04-15T15:36:34Z</time>
      </trkpt>
      <trkpt lat="44.44499" lon="5.03388">
        <ele>498.580933</ele>
        <time>2010-04-15T15:36:49Z</time>
      </trkpt>
      <trkpt lat="44.44492" lon="5.03377">
        <ele>495.696899</ele>
        <time>2010-04-15T15:37:04Z</time>
      </trkpt>
      <trkpt lat="44.44484" lon="5.03367">
        <ele>492.332397</ele>
        <time>2010-04-15T15:37:19Z</time>
      </trkpt>
      <trkpt lat="44.44475" lon="5.03362">
        <ele>488.967773</ele>
        <time>2010-04-15T15:37:34Z</time>
      </trkpt>
      <trkpt lat="44.44463" lon="5.0336">
        <ele>487.045044</ele>
        <time>2010-04-15T15:37:48Z</time>
      </trkpt>
      <trkpt lat="44.44449" lon="5.03358">
        <ele>483.68042</ele>
        <time>2010-04-15T15:38:07Z</time>
      </trkpt>
      <trkpt lat="44.44442" lon="5.03348">
        <ele>481.277222</ele>
        <time>2010-04-15T15:38:22Z</time>
      </trkpt>
      <trkpt lat="44.44431" lon="5.03345">
        <ele>478.393188</ele>
        <time>2010-04-15T15:38:36Z</time>
      </trkpt>
      <trkpt lat="44.44427" lon="5.03341">
        <ele>477.912476</ele>
        <time>2010-04-15T15:38:41Z</time>
      </trkpt>
      <trkpt lat="44.44411" lon="5.03337">
        <ele>474.547974</ele>
        <time>2010-04-15T15:38:57Z</time>
      </trkpt>
      <trkpt lat="44.44407" lon="5.03337">
        <ele>473.58667</ele>
        <time>2010-04-15T15:39:01Z</time>
      </trkpt>
      <trkpt lat="44.444" lon="5.03336">
        <ele>471.66394</ele>
        <time>2010-04-15T15:39:09Z</time>
      </trkpt>
      <trkpt lat="44.44389" lon="5.03332">
        <ele>468.780029</ele>
        <time>2010-04-15T15:39:22Z</time>
      </trkpt>
      <trkpt lat="44.44385" lon="5.03329">
        <ele>467.338135</ele>
        <time>2010-04-15T15:39:29Z</time>
      </trkpt>
      <trkpt lat="44.44372" lon="5.03323">
        <ele>464.934814</ele>
        <time>2010-04-15T15:39:44Z</time>
      </trkpt>
      <trkpt lat="44.44368" lon="5.03325">
        <ele>464.454102</ele>
        <time>2010-04-15T15:39:47Z</time>
      </trkpt>
      <trkpt lat="44.44359" lon="5.03317">
        <ele>461.089478</ele>
        <time>2010-04-15T15:40:00Z</time>
      </trkpt>
      <trkpt lat="44.44352" lon="5.03303">
        <ele>458.686157</ele>
        <time>2010-04-15T15:40:13Z</time>
      </trkpt>
      <trkpt lat="44.44341" lon="5.03295">
        <ele>456.282959</ele>
        <time>2010-04-15T15:40:28Z</time>
      </trkpt>
      <trkpt lat="44.4433" lon="5.03288">
        <ele>453.879639</ele>
        <time>2010-04-15T15:40:43Z</time>
      </trkpt>
      <trkpt lat="44.44327" lon="5.03285">
        <ele>452.437622</ele>
        <time>2010-04-15T15:40:49Z</time>
      </trkpt>
      <trkpt lat="44.44314" lon="5.03278">
        <ele>449.072998</ele>
        <time>2010-04-15T15:41:07Z</time>
      </trkpt>
      <trkpt lat="44.44304" lon="5.03268">
        <ele>446.189087</ele>
        <time>2010-04-15T15:41:23Z</time>
      </trkpt>
      <trkpt lat="44.44292" lon="5.03262">
        <ele>443.305054</ele>
        <time>2010-04-15T15:41:36Z</time>
      </trkpt>
      <trkpt lat="44.44282" lon="5.03258">
        <ele>441.382446</ele>
        <time>2010-04-15T15:41:49Z</time>
      </trkpt>
      <trkpt lat="44.44271" lon="5.03258">
        <ele>438.498535</ele>
        <time>2010-04-15T15:42:06Z</time>
      </trkpt>
      <trkpt lat="44.4427" lon="5.03259">
        <ele>438.979126</ele>
        <time>2010-04-15T15:42:34Z</time>
      </trkpt>
      <trkpt lat="44.44268" lon="5.03258">
        <ele>438.498535</ele>
        <time>2010-04-15T15:43:07Z</time>
      </trkpt>
      <trkpt lat="44.4427" lon="5.03259">
        <ele>438.979126</ele>
        <time>2010-04-15T15:43:11Z</time>
      </trkpt>
      <trkpt lat="44.44274" lon="5.03256">
        <ele>439.94043</ele>
        <time>2010-04-15T15:43:25Z</time>
      </trkpt>
      <trkpt lat="44.44272" lon="5.03261">
        <ele>439.94043</ele>
        <time>2010-04-15T15:43:30Z</time>
      </trkpt>
      <trkpt lat="44.44275" lon="5.03272">
        <ele>441.382446</ele>
        <time>2010-04-15T15:43:46Z</time>
      </trkpt>
      <trkpt lat="44.44276" lon="5.03272">
        <ele>441.863159</ele>
        <time>2010-04-15T15:43:47Z</time>
      </trkpt>
      <trkpt lat="44.44276" lon="5.03281">
        <ele>442.824463</ele>
        <time>2010-04-15T15:43:53Z</time>
      </trkpt>
      <trkpt lat="44.44291" lon="5.03276">
        <ele>443.785767</ele>
        <time>2010-04-15T15:44:01Z</time>
      </trkpt>
      <trkpt lat="44.44291" lon="5.03276">
        <ele>446.669678</ele>
        <time>2010-04-15T15:44:18Z</time>
      </trkpt>
      <trkpt lat="44.44291" lon="5.03276">
        <ele>447.150269</ele>
        <time>2010-04-15T15:44:22Z</time>
      </trkpt>
      <trkpt lat="44.44314" lon="5.03264">
        <ele>450.034424</ele>
        <time>2010-04-15T15:44:37Z</time>
      </trkpt>
      <trkpt lat="44.44314" lon="5.03264">
        <ele>450.995605</ele>
        <time>2010-04-15T15:44:44Z</time>
      </trkpt>
      <trkpt lat="44.4432" lon="5.03261">
        <ele>452.437622</ele>
        <time>2010-04-15T15:44:51Z</time>
      </trkpt>
      <trkpt lat="44.4432" lon="5.0326">
        <ele>452.918213</ele>
        <time>2010-04-15T15:44:54Z</time>
      </trkpt>
      <trkpt lat="44.4432" lon="5.0326">
        <ele>453.398926</ele>
        <time>2010-04-15T15:44:56Z</time>
      </trkpt>
      <trkpt lat="44.4432" lon="5.0326">
        <ele>454.84082</ele>
        <time>2010-04-15T15:45:06Z</time>
      </trkpt>
      <trkpt lat="44.44331" lon="5.03253">
        <ele>456.76355</ele>
        <time>2010-04-15T15:45:17Z</time>
      </trkpt>
      <trkpt lat="44.44331" lon="5.03253">
        <ele>457.244263</ele>
        <time>2010-04-15T15:45:21Z</time>
      </trkpt>
      <trkpt lat="44.44352" lon="5.03297">
        <ele>458.205566</ele>
        <time>2010-04-15T15:45:23Z</time>
      </trkpt>
      <trkpt lat="44.44354" lon="5.033">
        <ele>458.205566</ele>
        <time>2010-04-15T15:45:27Z</time>
      </trkpt>
      <trkpt lat="44.44357" lon="5.033">
        <ele>458.686157</ele>
        <time>2010-04-15T15:45:30Z</time>
      </trkpt>
      <trkpt lat="44.44364" lon="5.03304">
        <ele>461.089478</ele>
        <time>2010-04-15T15:45:41Z</time>
      </trkpt>
      <trkpt lat="44.44373" lon="5.03312">
        <ele>463.492798</ele>
        <time>2010-04-15T15:45:53Z</time>
      </trkpt>
      <trkpt lat="44.44374" lon="5.03315">
        <ele>463.492798</ele>
        <time>2010-04-15T15:46:10Z</time>
      </trkpt>
      <trkpt lat="44.44374" lon="5.03325">
        <ele>463.492798</ele>
        <time>2010-04-15T15:49:44Z</time>
      </trkpt>
      <trkpt lat="44.44378" lon="5.0334">
        <ele>464.454102</ele>
        <time>2010-04-15T15:49:59Z</time>
      </trkpt>
      <trkpt lat="44.44385" lon="5.03354">
        <ele>464.934814</ele>
        <time>2010-04-15T15:50:11Z</time>
      </trkpt>
      <trkpt lat="44.44386" lon="5.03365">
        <ele>466.376709</ele>
        <time>2010-04-15T15:50:20Z</time>
      </trkpt>
      <trkpt lat="44.44386" lon="5.03369">
        <ele>468.299316</ele>
        <time>2010-04-15T15:50:23Z</time>
      </trkpt>
      <trkpt lat="44.44386" lon="5.03386">
        <ele>469.260742</ele>
        <time>2010-04-15T15:50:35Z</time>
      </trkpt>
      <trkpt lat="44.44387" lon="5.0339">
        <ele>470.702637</ele>
        <time>2010-04-15T15:50:39Z</time>
      </trkpt>
      <trkpt lat="44.44391" lon="5.03395">
        <ele>472.144653</ele>
        <time>2010-04-15T15:50:44Z</time>
      </trkpt>
      <trkpt lat="44.44398" lon="5.03404">
        <ele>474.067261</ele>
        <time>2010-04-15T15:50:56Z</time>
      </trkpt>
      <trkpt lat="44.44403" lon="5.03405">
        <ele>475.509277</ele>
        <time>2010-04-15T15:51:03Z</time>
      </trkpt>
      <trkpt lat="44.44406" lon="5.03408">
        <ele>475.989868</ele>
        <time>2010-04-15T15:51:07Z</time>
      </trkpt>
      <trkpt lat="44.44412" lon="5.03417">
        <ele>476.470581</ele>
        <time>2010-04-15T15:51:17Z</time>
      </trkpt>
      <trkpt lat="44.44421" lon="5.03427">
        <ele>477.431885</ele>
        <time>2010-04-15T15:51:28Z</time>
      </trkpt>
      <trkpt lat="44.44431" lon="5.03438">
        <ele>478.873901</ele>
        <time>2010-04-15T15:51:43Z</time>
      </trkpt>
      <trkpt lat="44.44438" lon="5.03444">
        <ele>480.796631</ele>
        <time>2010-04-15T15:51:58Z</time>
      </trkpt>
      <trkpt lat="44.44446" lon="5.03453">
        <ele>481.277222</ele>
        <time>2010-04-15T15:52:17Z</time>
      </trkpt>
      <trkpt lat="44.44463" lon="5.03472">
        <ele>482.719238</ele>
        <time>2010-04-15T15:52:39Z</time>
      </trkpt>
      <trkpt lat="44.44469" lon="5.03476">
        <ele>482.719238</ele>
        <time>2010-04-15T15:52:54Z</time>
      </trkpt>
      <trkpt lat="44.44476" lon="5.0348">
        <ele>482.238525</ele>
        <time>2010-04-15T15:53:08Z</time>
      </trkpt>
      <trkpt lat="44.44486" lon="5.03486">
        <ele>482.238525</ele>
        <time>2010-04-15T15:53:36Z</time>
      </trkpt>
      <trkpt lat="44.44486" lon="5.03486">
        <ele>482.238525</ele>
        <time>2010-04-15T15:53:37Z</time>
      </trkpt>
      <trkpt lat="44.44492" lon="5.03489">
        <ele>481.757813</ele>
        <time>2010-04-15T15:53:44Z</time>
      </trkpt>
      <trkpt lat="44.44508" lon="5.03491">
        <ele>481.757813</ele>
        <time>2010-04-15T15:53:58Z</time>
      </trkpt>
      <trkpt lat="44.44521" lon="5.03492">
        <ele>483.68042</ele>
        <time>2010-04-15T15:54:11Z</time>
      </trkpt>
      <trkpt lat="44.44524" lon="5.03492">
        <ele>484.161133</ele>
        <time>2010-04-15T15:54:14Z</time>
      </trkpt>
      <trkpt lat="44.44533" lon="5.03501">
        <ele>485.603027</ele>
        <time>2010-04-15T15:54:26Z</time>
      </trkpt>
      <trkpt lat="44.44537" lon="5.03502">
        <ele>486.08374</ele>
        <time>2010-04-15T15:54:30Z</time>
      </trkpt>
      <trkpt lat="44.4455" lon="5.03509">
        <ele>487.045044</ele>
        <time>2010-04-15T15:54:40Z</time>
      </trkpt>
      <trkpt lat="44.44551" lon="5.03509">
        <ele>487.525635</ele>
        <time>2010-04-15T15:54:54Z</time>
      </trkpt>
      <trkpt lat="44.44548" lon="5.03508">
        <ele>488.487183</ele>
        <time>2010-04-15T15:55:18Z</time>
      </trkpt>
      <trkpt lat="44.4455" lon="5.03508">
        <ele>487.525635</ele>
        <time>2010-04-15T15:55:45Z</time>
      </trkpt>
      <trkpt lat="44.44553" lon="5.0351">
        <ele>487.525635</ele>
        <time>2010-04-15T15:56:23Z</time>
      </trkpt>
      <trkpt lat="44.44555" lon="5.03512">
        <ele>487.525635</ele>
        <time>2010-04-15T15:56:34Z</time>
      </trkpt>
      <trkpt lat="44.44563" lon="5.03517">
        <ele>488.00647</ele>
        <time>2010-04-15T15:56:43Z</time>
      </trkpt>
      <trkpt lat="44.44567" lon="5.03518">
        <ele>488.00647</ele>
        <time>2010-04-15T15:56:46Z</time>
      </trkpt>
      <trkpt lat="44.4457" lon="5.0352">
        <ele>488.487183</ele>
        <time>2010-04-15T15:56:49Z</time>
      </trkpt>
      <trkpt lat="44.44578" lon="5.03525">
        <ele>488.487183</ele>
        <time>2010-04-15T15:57:01Z</time>
      </trkpt>
      <trkpt lat="44.44588" lon="5.03531">
        <ele>489.929077</ele>
        <time>2010-04-15T15:57:14Z</time>
      </trkpt>
      <trkpt lat="44.44598" lon="5.03537">
        <ele>490.890381</ele>
        <time>2010-04-15T15:57:30Z</time>
      </trkpt>
      <trkpt lat="44.44607" lon="5.03542">
        <ele>491.370972</ele>
        <time>2010-04-15T15:57:45Z</time>
      </trkpt>
      <trkpt lat="44.44617" lon="5.03549">
        <ele>492.332397</ele>
        <time>2010-04-15T15:57:59Z</time>
      </trkpt>
      <trkpt lat="44.44618" lon="5.03549">
        <ele>492.332397</ele>
        <time>2010-04-15T15:58:02Z</time>
      </trkpt>
      <trkpt lat="44.44621" lon="5.03551">
        <ele>492.332397</ele>
        <time>2010-04-15T15:58:05Z</time>
      </trkpt>
      <trkpt lat="44.44632" lon="5.03552">
        <ele>494.255005</ele>
        <time>2010-04-15T15:58:19Z</time>
      </trkpt>
      <trkpt lat="44.44637" lon="5.03555">
        <ele>495.696899</ele>
        <time>2010-04-15T15:58:30Z</time>
      </trkpt>
      <trkpt lat="44.44645" lon="5.03556">
        <ele>497.619629</ele>
        <time>2010-04-15T15:58:44Z</time>
      </trkpt>
      <trkpt lat="44.44655" lon="5.03558">
        <ele>498.100342</ele>
        <time>2010-04-15T15:59:02Z</time>
      </trkpt>
      <trkpt lat="44.44669" lon="5.03559">
        <ele>500.022949</ele>
        <time>2010-04-15T15:59:22Z</time>
      </trkpt>
      <trkpt lat="44.44682" lon="5.03559">
        <ele>500.50354</ele>
        <time>2010-04-15T15:59:35Z</time>
      </trkpt>
      <trkpt lat="44.44686" lon="5.03573">
        <ele>500.022949</ele>
        <time>2010-04-15T15:59:44Z</time>
      </trkpt>
      <trkpt lat="44.44687" lon="5.03575">
        <ele>500.022949</ele>
        <time>2010-04-15T15:59:45Z</time>
      </trkpt>
      <trkpt lat="44.44687" lon="5.03585">
        <ele>499.542236</ele>
        <time>2010-04-15T15:59:53Z</time>
      </trkpt>
      <trkpt lat="44.44687" lon="5.03593">
        <ele>499.542236</ele>
        <time>2010-04-15T15:59:57Z</time>
      </trkpt>
      <trkpt lat="44.4469" lon="5.036">
        <ele>499.542236</ele>
        <time>2010-04-15T16:00:01Z</time>
      </trkpt>
      <trkpt lat="44.44692" lon="5.03601">
        <ele>499.542236</ele>
        <time>2010-04-15T16:00:03Z</time>
      </trkpt>
      <trkpt lat="44.44696" lon="5.03604">
        <ele>497.138916</ele>
        <time>2010-04-15T16:00:13Z</time>
      </trkpt>
      <trkpt lat="44.44697" lon="5.03614">
        <ele>495.696899</ele>
        <time>2010-04-15T16:00:30Z</time>
      </trkpt>
      <trkpt lat="44.44697" lon="5.03614">
        <ele>496.177734</ele>
        <time>2010-04-15T16:01:05Z</time>
      </trkpt>
      <trkpt lat="44.44702" lon="5.03609">
        <ele>496.658325</ele>
        <time>2010-04-15T16:01:33Z</time>
      </trkpt>
      <trkpt lat="44.44715" lon="5.03599">
        <ele>498.100342</ele>
        <time>2010-04-15T16:01:51Z</time>
      </trkpt>
      <trkpt lat="44.44723" lon="5.03592">
        <ele>499.061523</ele>
        <time>2010-04-15T16:02:03Z</time>
      </trkpt>
      <trkpt lat="44.44732" lon="5.0358">
        <ele>500.50354</ele>
        <time>2010-04-15T16:02:20Z</time>
      </trkpt>
      <trkpt lat="44.44741" lon="5.03574">
        <ele>501.464844</ele>
        <time>2010-04-15T16:02:35Z</time>
      </trkpt>
      <trkpt lat="44.44754" lon="5.03569">
        <ele>501.945557</ele>
        <time>2010-04-15T16:02:51Z</time>
      </trkpt>
      <trkpt lat="44.44765" lon="5.03565">
        <ele>503.868164</ele>
        <time>2010-04-15T16:03:05Z</time>
      </trkpt>
      <trkpt lat="44.44777" lon="5.03562">
        <ele>504.348877</ele>
        <time>2010-04-15T16:03:20Z</time>
      </trkpt>
      <trkpt lat="44.44791" lon="5.03558">
        <ele>504.829468</ele>
        <time>2010-04-15T16:03:34Z</time>
      </trkpt>
      <trkpt lat="44.44802" lon="5.03552">
        <ele>505.310181</ele>
        <time>2010-04-15T16:03:47Z</time>
      </trkpt>
      <trkpt lat="44.4481" lon="5.0355">
        <ele>505.310181</ele>
        <time>2010-04-15T16:03:56Z</time>
      </trkpt>
      <trkpt lat="44.44812" lon="5.03549">
        <ele>505.790894</ele>
        <time>2010-04-15T16:03:59Z</time>
      </trkpt>
      <trkpt lat="44.44829" lon="5.03553">
        <ele>506.271484</ele>
        <time>2010-04-15T16:04:16Z</time>
      </trkpt>
      <trkpt lat="44.44834" lon="5.03553">
        <ele>506.752075</ele>
        <time>2010-04-15T16:04:22Z</time>
      </trkpt>
      <trkpt lat="44.44849" lon="5.03553">
        <ele>507.713501</ele>
        <time>2010-04-15T16:04:36Z</time>
      </trkpt>
      <trkpt lat="44.44861" lon="5.03552">
        <ele>509.155396</ele>
        <time>2010-04-15T16:04:50Z</time>
      </trkpt>
      <trkpt lat="44.44874" lon="5.03547">
        <ele>510.59729</ele>
        <time>2010-04-15T16:05:08Z</time>
      </trkpt>
      <trkpt lat="44.44876" lon="5.03546">
        <ele>511.078003</ele>
        <time>2010-04-15T16:05:11Z</time>
      </trkpt>
      <trkpt lat="44.44887" lon="5.03544">
        <ele>512.52002</ele>
        <time>2010-04-15T16:05:26Z</time>
      </trkpt>
      <trkpt lat="44.4489" lon="5.03545">
        <ele>512.52002</ele>
        <time>2010-04-15T16:05:29Z</time>
      </trkpt>
      <trkpt lat="44.44902" lon="5.03545">
        <ele>513.481445</ele>
        <time>2010-04-15T16:05:42Z</time>
      </trkpt>
      <trkpt lat="44.44908" lon="5.03539">
        <ele>514.442627</ele>
        <time>2010-04-15T16:05:55Z</time>
      </trkpt>
      <trkpt lat="44.44917" lon="5.03534">
        <ele>514.442627</ele>
        <time>2010-04-15T16:06:09Z</time>
      </trkpt>
      <trkpt lat="44.44924" lon="5.03532">
        <ele>516.365234</ele>
        <time>2010-04-15T16:06:22Z</time>
      </trkpt>
      <trkpt lat="44.44934" lon="5.03526">
        <ele>517.32666</ele>
        <time>2010-04-15T16:06:36Z</time>
      </trkpt>
      <trkpt lat="44.44944" lon="5.03524">
        <ele>518.287842</ele>
        <time>2010-04-15T16:06:53Z</time>
      </trkpt>
      <trkpt lat="44.44955" lon="5.03518">
        <ele>519.729858</ele>
        <time>2010-04-15T16:07:07Z</time>
      </trkpt>
      <trkpt lat="44.44962" lon="5.03514">
        <ele>520.691284</ele>
        <time>2010-04-15T16:07:21Z</time>
      </trkpt>
      <trkpt lat="44.44972" lon="5.03508">
        <ele>522.133179</ele>
        <time>2010-04-15T16:07:36Z</time>
      </trkpt>
      <trkpt lat="44.44979" lon="5.03506">
        <ele>522.613892</ele>
        <time>2010-04-15T16:07:47Z</time>
      </trkpt>
      <trkpt lat="44.44987" lon="5.03502">
        <ele>523.094604</ele>
        <time>2010-04-15T16:08:00Z</time>
      </trkpt>
      <trkpt lat="44.45" lon="5.03503">
        <ele>524.536499</ele>
        <time>2010-04-15T16:08:18Z</time>
      </trkpt>
      <trkpt lat="44.45009" lon="5.03501">
        <ele>525.978394</ele>
        <time>2010-04-15T16:08:32Z</time>
      </trkpt>
      <trkpt lat="44.45016" lon="5.03504">
        <ele>527.42041</ele>
        <time>2010-04-15T16:08:45Z</time>
      </trkpt>
      <trkpt lat="44.45024" lon="5.03512">
        <ele>528.862549</ele>
        <time>2010-04-15T16:08:58Z</time>
      </trkpt>
      <trkpt lat="44.45026" lon="5.03515">
        <ele>528.381836</ele>
        <time>2010-04-15T16:09:02Z</time>
      </trkpt>
      <trkpt lat="44.45032" lon="5.03521">
        <ele>530.304443</ele>
        <time>2010-04-15T16:09:12Z</time>
      </trkpt>
      <trkpt lat="44.45041" lon="5.0353">
        <ele>531.746338</ele>
        <time>2010-04-15T16:09:24Z</time>
      </trkpt>
      <trkpt lat="44.45046" lon="5.03533">
        <ele>531.746338</ele>
        <time>2010-04-15T16:09:29Z</time>
      </trkpt>
      <trkpt lat="44.45054" lon="5.03539">
        <ele>533.188354</ele>
        <time>2010-04-15T16:09:41Z</time>
      </trkpt>
      <trkpt lat="44.45066" lon="5.03551">
        <ele>534.149658</ele>
        <time>2010-04-15T16:09:55Z</time>
      </trkpt>
      <trkpt lat="44.45071" lon="5.03567">
        <ele>536.072388</ele>
        <time>2010-04-15T16:10:11Z</time>
      </trkpt>
      <trkpt lat="44.45082" lon="5.03578">
        <ele>537.994995</ele>
        <time>2010-04-15T16:10:26Z</time>
      </trkpt>
      <trkpt lat="44.45092" lon="5.0359">
        <ele>539.917603</ele>
        <time>2010-04-15T16:10:39Z</time>
      </trkpt>
      <trkpt lat="44.45097" lon="5.03601">
        <ele>541.359497</ele>
        <time>2010-04-15T16:10:52Z</time>
      </trkpt>
      <trkpt lat="44.45103" lon="5.0361">
        <ele>543.282104</ele>
        <time>2010-04-15T16:11:02Z</time>
      </trkpt>
      <trkpt lat="44.45106" lon="5.03628">
        <ele>544.724243</ele>
        <time>2010-04-15T16:11:18Z</time>
      </trkpt>
      <trkpt lat="44.45111" lon="5.03642">
        <ele>546.646851</ele>
        <time>2010-04-15T16:11:32Z</time>
      </trkpt>
      <trkpt lat="44.45113" lon="5.03656">
        <ele>548.569336</ele>
        <time>2010-04-15T16:11:46Z</time>
      </trkpt>
      <trkpt lat="44.45119" lon="5.03668">
        <ele>549.530762</ele>
        <time>2010-04-15T16:11:58Z</time>
      </trkpt>
      <trkpt lat="44.45117" lon="5.03673">
        <ele>550.972656</ele>
        <time>2010-04-15T16:12:02Z</time>
      </trkpt>
      <trkpt lat="44.45122" lon="5.03689">
        <ele>552.895264</ele>
        <time>2010-04-15T16:12:17Z</time>
      </trkpt>
      <trkpt lat="44.45127" lon="5.03701">
        <ele>553.375977</ele>
        <time>2010-04-15T16:12:28Z</time>
      </trkpt>
      <trkpt lat="44.4513" lon="5.03705">
        <ele>553.375977</ele>
        <time>2010-04-15T16:12:32Z</time>
      </trkpt>
      <trkpt lat="44.45132" lon="5.03714">
        <ele>554.337402</ele>
        <time>2010-04-15T16:12:41Z</time>
      </trkpt>
      <trkpt lat="44.45133" lon="5.03721">
        <ele>554.337402</ele>
        <time>2010-04-15T16:12:45Z</time>
      </trkpt>
      <trkpt lat="44.45134" lon="5.03725">
        <ele>555.298584</ele>
        <time>2010-04-15T16:12:48Z</time>
      </trkpt>
      <trkpt lat="44.45136" lon="5.03738">
        <ele>556.26001</ele>
        <time>2010-04-15T16:13:01Z</time>
      </trkpt>
      <trkpt lat="44.45141" lon="5.03752">
        <ele>558.66333</ele>
        <time>2010-04-15T16:13:21Z</time>
      </trkpt>
      <trkpt lat="44.45147" lon="5.03766">
        <ele>560.585938</ele>
        <time>2010-04-15T16:13:35Z</time>
      </trkpt>
      <trkpt lat="44.4515" lon="5.03767">
        <ele>560.585938</ele>
        <time>2010-04-15T16:13:39Z</time>
      </trkpt>
      <trkpt lat="44.45157" lon="5.03776">
        <ele>562.508545</ele>
        <time>2010-04-15T16:13:54Z</time>
      </trkpt>
      <trkpt lat="44.45167" lon="5.03782">
        <ele>563.950439</ele>
        <time>2010-04-15T16:14:07Z</time>
      </trkpt>
      <trkpt lat="44.45176" lon="5.03796">
        <ele>565.392578</ele>
        <time>2010-04-15T16:14:24Z</time>
      </trkpt>
      <trkpt lat="44.45181" lon="5.03809">
        <ele>567.315186</ele>
        <time>2010-04-15T16:14:38Z</time>
      </trkpt>
      <trkpt lat="44.45189" lon="5.03823">
        <ele>568.75708</ele>
        <time>2010-04-15T16:14:56Z</time>
      </trkpt>
      <trkpt lat="44.45193" lon="5.03825">
        <ele>569.237793</ele>
        <time>2010-04-15T16:14:59Z</time>
      </trkpt>
      <trkpt lat="44.45201" lon="5.03841">
        <ele>571.640869</ele>
        <time>2010-04-15T16:15:16Z</time>
      </trkpt>
      <trkpt lat="44.452" lon="5.03848">
        <ele>572.602539</ele>
        <time>2010-04-15T16:15:29Z</time>
      </trkpt>
      <trkpt lat="44.45194" lon="5.03853">
        <ele>573.563965</ele>
        <time>2010-04-15T16:15:38Z</time>
      </trkpt>
      <trkpt lat="44.45183" lon="5.03861">
        <ele>575.005859</ele>
        <time>2010-04-15T16:15:54Z</time>
      </trkpt>
      <trkpt lat="44.45174" lon="5.0388">
        <ele>576.447754</ele>
        <time>2010-04-15T16:16:14Z</time>
      </trkpt>
      <trkpt lat="44.45176" lon="5.03889">
        <ele>576.928467</ele>
        <time>2010-04-15T16:16:23Z</time>
      </trkpt>
      <trkpt lat="44.45182" lon="5.03899">
        <ele>577.889648</ele>
        <time>2010-04-15T16:16:34Z</time>
      </trkpt>
      <trkpt lat="44.45184" lon="5.03916">
        <ele>577.889648</ele>
        <time>2010-04-15T16:16:50Z</time>
      </trkpt>
      <trkpt lat="44.45187" lon="5.03931">
        <ele>578.370361</ele>
        <time>2010-04-15T16:17:06Z</time>
      </trkpt>
      <trkpt lat="44.45193" lon="5.03942">
        <ele>578.851074</ele>
        <time>2010-04-15T16:17:19Z</time>
      </trkpt>
      <trkpt lat="44.45203" lon="5.03952">
        <ele>580.292969</ele>
        <time>2010-04-15T16:17:34Z</time>
      </trkpt>
      <trkpt lat="44.45216" lon="5.03963">
        <ele>581.734863</ele>
        <time>2010-04-15T16:17:51Z</time>
      </trkpt>
      <trkpt lat="44.45232" lon="5.03976">
        <ele>585.099609</ele>
        <time>2010-04-15T16:18:11Z</time>
      </trkpt>
      <trkpt lat="44.4524" lon="5.03985">
        <ele>586.060791</ele>
        <time>2010-04-15T16:18:27Z</time>
      </trkpt>
      <trkpt lat="44.45245" lon="5.03993">
        <ele>588.464355</ele>
        <time>2010-04-15T16:18:43Z</time>
      </trkpt>
      <trkpt lat="44.45252" lon="5.03995">
        <ele>589.90625</ele>
        <time>2010-04-15T16:19:01Z</time>
      </trkpt>
      <trkpt lat="44.45257" lon="5.03994">
        <ele>590.386963</ele>
        <time>2010-04-15T16:19:21Z</time>
      </trkpt>
      <trkpt lat="44.45257" lon="5.03996">
        <ele>590.867432</ele>
        <time>2010-04-15T16:20:28Z</time>
      </trkpt>
      <trkpt lat="44.45257" lon="5.03999">
        <ele>590.386963</ele>
        <time>2010-04-15T16:23:03Z</time>
      </trkpt>
      <trkpt lat="44.45267" lon="5.04006">
        <ele>591.828857</ele>
        <time>2010-04-15T16:29:49Z</time>
      </trkpt>
      <trkpt lat="44.45274" lon="5.04015">
        <ele>592.790283</ele>
        <time>2010-04-15T16:30:06Z</time>
      </trkpt>
      <trkpt lat="44.45283" lon="5.04021">
        <ele>594.232178</ele>
        <time>2010-04-15T16:30:21Z</time>
      </trkpt>
      <trkpt lat="44.45289" lon="5.04027">
        <ele>595.193359</ele>
        <time>2010-04-15T16:30:35Z</time>
      </trkpt>
      <trkpt lat="44.45297" lon="5.04034">
        <ele>596.635498</ele>
        <time>2010-04-15T16:30:53Z</time>
      </trkpt>
      <trkpt lat="44.45306" lon="5.04041">
        <ele>598.077393</ele>
        <time>2010-04-15T16:31:08Z</time>
      </trkpt>
      <trkpt lat="44.45317" lon="5.04051">
        <ele>599.519287</ele>
        <time>2010-04-15T16:31:29Z</time>
      </trkpt>
      <trkpt lat="44.4533" lon="5.04061">
        <ele>600.480713</ele>
        <time>2010-04-15T16:31:48Z</time>
      </trkpt>
      <trkpt lat="44.45339" lon="5.04074">
        <ele>602.403076</ele>
        <time>2010-04-15T16:32:06Z</time>
      </trkpt>
      <trkpt lat="44.4535" lon="5.0408">
        <ele>603.364502</ele>
        <time>2010-04-15T16:32:24Z</time>
      </trkpt>
      <trkpt lat="44.45353" lon="5.04089">
        <ele>604.806641</ele>
        <time>2010-04-15T16:32:37Z</time>
      </trkpt>
      <trkpt lat="44.45365" lon="5.04093">
        <ele>607.209961</ele>
        <time>2010-04-15T16:32:55Z</time>
      </trkpt>
      <trkpt lat="44.45372" lon="5.04102">
        <ele>608.651855</ele>
        <time>2010-04-15T16:33:11Z</time>
      </trkpt>
      <trkpt lat="44.45377" lon="5.04114">
        <ele>610.09375</ele>
        <time>2010-04-15T16:33:26Z</time>
      </trkpt>
      <trkpt lat="44.45377" lon="5.0412">
        <ele>610.574463</ele>
        <time>2010-04-15T16:33:46Z</time>
      </trkpt>
      <trkpt lat="44.45381" lon="5.0412">
        <ele>612.016602</ele>
        <time>2010-04-15T16:34:53Z</time>
      </trkpt>
      <trkpt lat="44.45383" lon="5.04115">
        <ele>612.49707</ele>
        <time>2010-04-15T16:35:04Z</time>
      </trkpt>
      <trkpt lat="44.45384" lon="5.04101">
        <ele>612.49707</ele>
        <time>2010-04-15T16:35:19Z</time>
      </trkpt>
      <trkpt lat="44.4538" lon="5.04092">
        <ele>613.458496</ele>
        <time>2010-04-15T16:35:41Z</time>
      </trkpt>
      <trkpt lat="44.45373" lon="5.04081">
        <ele>612.977783</ele>
        <time>2010-04-15T16:35:54Z</time>
      </trkpt>
      <trkpt lat="44.4537" lon="5.04062">
        <ele>613.458496</ele>
        <time>2010-04-15T16:36:09Z</time>
      </trkpt>
      <trkpt lat="44.45369" lon="5.04061">
        <ele>613.938965</ele>
        <time>2010-04-15T16:36:10Z</time>
      </trkpt>
      <trkpt lat="44.45366" lon="5.04051">
        <ele>614.900391</ele>
        <time>2010-04-15T16:36:23Z</time>
      </trkpt>
      <trkpt lat="44.45365" lon="5.04047">
        <ele>616.342285</ele>
        <time>2010-04-15T16:36:33Z</time>
      </trkpt>
      <trkpt lat="44.45361" lon="5.04041">
        <ele>618.264893</ele>
        <time>2010-04-15T16:36:45Z</time>
      </trkpt>
      <trkpt lat="44.45361" lon="5.04035">
        <ele>619.226318</ele>
        <time>2010-04-15T16:36:56Z</time>
      </trkpt>
      <trkpt lat="44.45361" lon="5.04031">
        <ele>619.226318</ele>
        <time>2010-04-15T16:37:21Z</time>
      </trkpt>
      <trkpt lat="44.45356" lon="5.04015">
        <ele>619.226318</ele>
        <time>2010-04-15T16:38:18Z</time>
      </trkpt>
      <trkpt lat="44.45347" lon="5.04005">
        <ele>617.78418</ele>
        <time>2010-04-15T16:38:31Z</time>
      </trkpt>
      <trkpt lat="44.45332" lon="5.03997">
        <ele>615.861816</ele>
        <time>2010-04-15T16:38:51Z</time>
      </trkpt>
      <trkpt lat="44.45325" lon="5.03993">
        <ele>614.900391</ele>
        <time>2010-04-15T16:39:06Z</time>
      </trkpt>
      <trkpt lat="44.45315" lon="5.03982">
        <ele>612.977783</ele>
        <time>2010-04-15T16:39:22Z</time>
      </trkpt>
      <trkpt lat="44.45309" lon="5.03964">
        <ele>612.016602</ele>
        <time>2010-04-15T16:39:38Z</time>
      </trkpt>
      <trkpt lat="44.45307" lon="5.03945">
        <ele>611.055176</ele>
        <time>2010-04-15T16:39:54Z</time>
      </trkpt>
      <trkpt lat="44.45311" lon="5.03929">
        <ele>609.613281</ele>
        <time>2010-04-15T16:40:08Z</time>
      </trkpt>
      <trkpt lat="44.45316" lon="5.0392">
        <ele>609.132568</ele>
        <time>2010-04-15T16:40:17Z</time>
      </trkpt>
      <trkpt lat="44.45327" lon="5.03911">
        <ele>608.651855</ele>
        <time>2010-04-15T16:40:32Z</time>
      </trkpt>
      <trkpt lat="44.45333" lon="5.03905">
        <ele>609.132568</ele>
        <time>2010-04-15T16:40:39Z</time>
      </trkpt>
      <trkpt lat="44.45346" lon="5.03895">
        <ele>609.132568</ele>
        <time>2010-04-15T16:40:54Z</time>
      </trkpt>
      <trkpt lat="44.45355" lon="5.03891">
        <ele>609.613281</ele>
        <time>2010-04-15T16:41:06Z</time>
      </trkpt>
      <trkpt lat="44.45365" lon="5.03884">
        <ele>610.09375</ele>
        <time>2010-04-15T16:41:19Z</time>
      </trkpt>
      <trkpt lat="44.45374" lon="5.03878">
        <ele>610.574463</ele>
        <time>2010-04-15T16:41:32Z</time>
      </trkpt>
      <trkpt lat="44.45379" lon="5.03873">
        <ele>610.574463</ele>
        <time>2010-04-15T16:41:40Z</time>
      </trkpt>
      <trkpt lat="44.45382" lon="5.03875">
        <ele>611.055176</ele>
        <time>2010-04-15T16:41:42Z</time>
      </trkpt>
      <trkpt lat="44.45392" lon="5.03867">
        <ele>610.574463</ele>
        <time>2010-04-15T16:41:55Z</time>
      </trkpt>
      <trkpt lat="44.45394" lon="5.03866">
        <ele>611.535889</ele>
        <time>2010-04-15T16:42:00Z</time>
      </trkpt>
      <trkpt lat="44.45402" lon="5.03857">
        <ele>612.016602</ele>
        <time>2010-04-15T16:42:12Z</time>
      </trkpt>
      <trkpt lat="44.45414" lon="5.03849">
        <ele>612.977783</ele>
        <time>2010-04-15T16:42:31Z</time>
      </trkpt>
      <trkpt lat="44.45422" lon="5.03841">
        <ele>612.49707</ele>
        <time>2010-04-15T16:42:44Z</time>
      </trkpt>
      <trkpt lat="44.45427" lon="5.03842">
        <ele>612.49707</ele>
        <time>2010-04-15T16:42:50Z</time>
      </trkpt>
      <trkpt lat="44.45431" lon="5.03843">
        <ele>612.977783</ele>
        <time>2010-04-15T16:42:55Z</time>
      </trkpt>
      <trkpt lat="44.45435" lon="5.03843">
        <ele>612.49707</ele>
        <time>2010-04-15T16:42:58Z</time>
      </trkpt>
      <trkpt lat="44.45439" lon="5.03834">
        <ele>612.016602</ele>
        <time>2010-04-15T16:43:08Z</time>
      </trkpt>
      <trkpt lat="44.45449" lon="5.03824">
        <ele>612.49707</ele>
        <time>2010-04-15T16:43:26Z</time>
      </trkpt>
      <trkpt lat="44.45456" lon="5.03819">
        <ele>612.49707</ele>
        <time>2010-04-15T16:43:41Z</time>
      </trkpt>
      <trkpt lat="44.45457" lon="5.03823">
        <ele>612.977783</ele>
        <time>2010-04-15T16:44:03Z</time>
      </trkpt>
      <trkpt lat="44.45457" lon="5.0382">
        <ele>611.535889</ele>
        <time>2010-04-15T16:59:30Z</time>
      </trkpt>
      <trkpt lat="44.45458" lon="5.0382">
        <ele>611.055176</ele>
        <time>2010-04-15T17:00:54Z</time>
      </trkpt>
      <trkpt lat="44.45459" lon="5.03816">
        <ele>612.49707</ele>
        <time>2010-04-15T17:01:11Z</time>
      </trkpt>
      <trkpt lat="44.4547" lon="5.0381">
        <ele>611.535889</ele>
        <time>2010-04-15T17:01:27Z</time>
      </trkpt>
      <trkpt lat="44.4548" lon="5.03802">
        <ele>611.535889</ele>
        <time>2010-04-15T17:01:42Z</time>
      </trkpt>
      <trkpt lat="44.45488" lon="5.03787">
        <ele>611.055176</ele>
        <time>2010-04-15T17:01:57Z</time>
      </trkpt>
      <trkpt lat="44.45489" lon="5.03786">
        <ele>611.055176</ele>
        <time>2010-04-15T17:01:58Z</time>
      </trkpt>
      <trkpt lat="44.45495" lon="5.03772">
        <ele>610.574463</ele>
        <time>2010-04-15T17:02:09Z</time>
      </trkpt>
      <trkpt lat="44.45496" lon="5.03772">
        <ele>610.574463</ele>
        <time>2010-04-15T17:02:11Z</time>
      </trkpt>
      <trkpt lat="44.45499" lon="5.03764">
        <ele>610.09375</ele>
        <time>2010-04-15T17:02:17Z</time>
      </trkpt>
      <trkpt lat="44.45503" lon="5.03759">
        <ele>609.613281</ele>
        <time>2010-04-15T17:02:21Z</time>
      </trkpt>
      <trkpt lat="44.45504" lon="5.03753">
        <ele>609.613281</ele>
        <time>2010-04-15T17:02:26Z</time>
      </trkpt>
      <trkpt lat="44.45513" lon="5.0374">
        <ele>607.690674</ele>
        <time>2010-04-15T17:02:40Z</time>
      </trkpt>
      <trkpt lat="44.45523" lon="5.03731">
        <ele>607.209961</ele>
        <time>2010-04-15T17:02:48Z</time>
      </trkpt>
      <trkpt lat="44.45533" lon="5.03716">
        <ele>605.768066</ele>
        <time>2010-04-15T17:03:02Z</time>
      </trkpt>
      <trkpt lat="44.45544" lon="5.03705">
        <ele>604.806641</ele>
        <time>2010-04-15T17:03:13Z</time>
      </trkpt>
      <trkpt lat="44.45549" lon="5.03702">
        <ele>603.845215</ele>
        <time>2010-04-15T17:03:18Z</time>
      </trkpt>
      <trkpt lat="44.45564" lon="5.03686">
        <ele>602.403076</ele>
        <time>2010-04-15T17:03:34Z</time>
      </trkpt>
      <trkpt lat="44.45566" lon="5.03684">
        <ele>601.922607</ele>
        <time>2010-04-15T17:03:37Z</time>
      </trkpt>
      <trkpt lat="44.45572" lon="5.03674">
        <ele>600.961182</ele>
        <time>2010-04-15T17:03:45Z</time>
      </trkpt>
      <trkpt lat="44.45577" lon="5.03669">
        <ele>600.480713</ele>
        <time>2010-04-15T17:03:51Z</time>
      </trkpt>
      <trkpt lat="44.45584" lon="5.03663">
        <ele>600</ele>
        <time>2010-04-15T17:03:59Z</time>
      </trkpt>
      <trkpt lat="44.45588" lon="5.03661">
        <ele>599.038574</ele>
        <time>2010-04-15T17:04:04Z</time>
      </trkpt>
      <trkpt lat="44.45597" lon="5.03653">
        <ele>597.59668</ele>
        <time>2010-04-15T17:04:14Z</time>
      </trkpt>
      <trkpt lat="44.45604" lon="5.03647">
        <ele>597.115967</ele>
        <time>2010-04-15T17:04:20Z</time>
      </trkpt>
      <trkpt lat="44.45605" lon="5.03644">
        <ele>596.635498</ele>
        <time>2010-04-15T17:04:22Z</time>
      </trkpt>
      <trkpt lat="44.45621" lon="5.03643">
        <ele>596.154785</ele>
        <time>2010-04-15T17:04:36Z</time>
      </trkpt>
      <trkpt lat="44.45635" lon="5.0364">
        <ele>594.232178</ele>
        <time>2010-04-15T17:04:54Z</time>
      </trkpt>
      <trkpt lat="44.45634" lon="5.03638">
        <ele>593.751465</ele>
        <time>2010-04-15T17:04:56Z</time>
      </trkpt>
      <trkpt lat="44.4562" lon="5.0363">
        <ele>590.867432</ele>
        <time>2010-04-15T17:05:12Z</time>
      </trkpt>
      <trkpt lat="44.45603" lon="5.03623">
        <ele>587.983398</ele>
        <time>2010-04-15T17:05:28Z</time>
      </trkpt>
      <trkpt lat="44.45602" lon="5.03623">
        <ele>587.983398</ele>
        <time>2010-04-15T17:05:29Z</time>
      </trkpt>
      <trkpt lat="44.45585" lon="5.03618">
        <ele>585.580078</ele>
        <time>2010-04-15T17:05:46Z</time>
      </trkpt>
      <trkpt lat="44.45568" lon="5.03615">
        <ele>582.696289</ele>
        <time>2010-04-15T17:06:02Z</time>
      </trkpt>
      <trkpt lat="44.45552" lon="5.0361">
        <ele>580.292969</ele>
        <time>2010-04-15T17:06:19Z</time>
      </trkpt>
      <trkpt lat="44.45543" lon="5.03608">
        <ele>578.851074</ele>
        <time>2010-04-15T17:06:33Z</time>
      </trkpt>
      <trkpt lat="44.45533" lon="5.03606">
        <ele>576.928467</ele>
        <time>2010-04-15T17:06:49Z</time>
      </trkpt>
      <trkpt lat="44.45522" lon="5.03599">
        <ele>574.044434</ele>
        <time>2010-04-15T17:07:04Z</time>
      </trkpt>
      <trkpt lat="44.45512" lon="5.03595">
        <ele>572.121826</ele>
        <time>2010-04-15T17:07:18Z</time>
      </trkpt>
      <trkpt lat="44.45512" lon="5.03594">
        <ele>572.121826</ele>
        <time>2010-04-15T17:07:19Z</time>
      </trkpt>
      <trkpt lat="44.45501" lon="5.03592">
        <ele>569.237793</ele>
        <time>2010-04-15T17:07:34Z</time>
      </trkpt>
      <trkpt lat="44.45497" lon="5.0359">
        <ele>569.237793</ele>
        <time>2010-04-15T17:07:39Z</time>
      </trkpt>
      <trkpt lat="44.45487" lon="5.03591">
        <ele>567.315186</ele>
        <time>2010-04-15T17:07:49Z</time>
      </trkpt>
      <trkpt lat="44.4547" lon="5.03573">
        <ele>563.950439</ele>
        <time>2010-04-15T17:08:09Z</time>
      </trkpt>
      <trkpt lat="44.45464" lon="5.03562">
        <ele>562.028076</ele>
        <time>2010-04-15T17:08:21Z</time>
      </trkpt>
      <trkpt lat="44.45465" lon="5.03552">
        <ele>561.06665</ele>
        <time>2010-04-15T17:08:28Z</time>
      </trkpt>
      <trkpt lat="44.4548" lon="5.03536">
        <ele>558.182861</ele>
        <time>2010-04-15T17:08:46Z</time>
      </trkpt>
      <trkpt lat="44.45481" lon="5.0353">
        <ele>556.740723</ele>
        <time>2010-04-15T17:08:58Z</time>
      </trkpt>
      <trkpt lat="44.45487" lon="5.03512">
        <ele>554.817871</ele>
        <time>2010-04-15T17:09:14Z</time>
      </trkpt>
      <trkpt lat="44.45489" lon="5.03507">
        <ele>554.337402</ele>
        <time>2010-04-15T17:09:18Z</time>
      </trkpt>
      <trkpt lat="44.45505" lon="5.03488">
        <ele>551.453369</ele>
        <time>2010-04-15T17:09:36Z</time>
      </trkpt>
      <trkpt lat="44.45511" lon="5.0348">
        <ele>550.972656</ele>
        <time>2010-04-15T17:09:46Z</time>
      </trkpt>
      <trkpt lat="44.45513" lon="5.03478">
        <ele>550.492188</ele>
        <time>2010-04-15T17:09:48Z</time>
      </trkpt>
      <trkpt lat="44.45527" lon="5.03466">
        <ele>548.569336</ele>
        <time>2010-04-15T17:10:05Z</time>
      </trkpt>
      <trkpt lat="44.4553" lon="5.03465">
        <ele>548.088867</ele>
        <time>2010-04-15T17:10:09Z</time>
      </trkpt>
      <trkpt lat="44.45533" lon="5.03461">
        <ele>548.088867</ele>
        <time>2010-04-15T17:10:12Z</time>
      </trkpt>
      <trkpt lat="44.45542" lon="5.03457">
        <ele>547.127441</ele>
        <time>2010-04-15T17:10:21Z</time>
      </trkpt>
      <trkpt lat="44.45544" lon="5.03456">
        <ele>546.646851</ele>
        <time>2010-04-15T17:10:24Z</time>
      </trkpt>
      <trkpt lat="44.45546" lon="5.03449">
        <ele>545.685547</ele>
        <time>2010-04-15T17:10:31Z</time>
      </trkpt>
      <trkpt lat="44.45545" lon="5.03441">
        <ele>544.724243</ele>
        <time>2010-04-15T17:10:37Z</time>
      </trkpt>
      <trkpt lat="44.45539" lon="5.03421">
        <ele>542.320923</ele>
        <time>2010-04-15T17:10:53Z</time>
      </trkpt>
      <trkpt lat="44.45541" lon="5.03412">
        <ele>541.84021</ele>
        <time>2010-04-15T17:11:00Z</time>
      </trkpt>
      <trkpt lat="44.4554" lon="5.03395">
        <ele>540.878906</ele>
        <time>2010-04-15T17:11:15Z</time>
      </trkpt>
      <trkpt lat="44.45541" lon="5.0339">
        <ele>539.917603</ele>
        <time>2010-04-15T17:11:19Z</time>
      </trkpt>
      <trkpt lat="44.45545" lon="5.03374">
        <ele>538.956299</ele>
        <time>2010-04-15T17:11:35Z</time>
      </trkpt>
      <trkpt lat="44.45539" lon="5.03372">
        <ele>538.956299</ele>
        <time>2010-04-15T17:12:27Z</time>
      </trkpt>
      <trkpt lat="44.4553" lon="5.03369">
        <ele>540.398315</ele>
        <time>2010-04-15T17:12:40Z</time>
      </trkpt>
      <trkpt lat="44.45517" lon="5.03371">
        <ele>540.878906</ele>
        <time>2010-04-15T17:12:58Z</time>
      </trkpt>
      <trkpt lat="44.4551" lon="5.03371">
        <ele>540.398315</ele>
        <time>2010-04-15T17:13:06Z</time>
      </trkpt>
      <trkpt lat="44.455" lon="5.03365">
        <ele>540.398315</ele>
        <time>2010-04-15T17:13:18Z</time>
      </trkpt>
      <trkpt lat="44.45499" lon="5.03364">
        <ele>540.398315</ele>
        <time>2010-04-15T17:13:19Z</time>
      </trkpt>
      <trkpt lat="44.45493" lon="5.03354">
        <ele>538.956299</ele>
        <time>2010-04-15T17:13:34Z</time>
      </trkpt>
      <trkpt lat="44.45486" lon="5.03342">
        <ele>537.994995</ele>
        <time>2010-04-15T17:13:48Z</time>
      </trkpt>
      <trkpt lat="44.45476" lon="5.03326">
        <ele>536.072388</ele>
        <time>2010-04-15T17:14:05Z</time>
      </trkpt>
      <trkpt lat="44.45475" lon="5.03318">
        <ele>535.591553</ele>
        <time>2010-04-15T17:14:11Z</time>
      </trkpt>
      <trkpt lat="44.45475" lon="5.03311">
        <ele>535.591553</ele>
        <time>2010-04-15T17:14:17Z</time>
      </trkpt>
      <trkpt lat="44.45473" lon="5.03289">
        <ele>534.149658</ele>
        <time>2010-04-15T17:14:35Z</time>
      </trkpt>
      <trkpt lat="44.45471" lon="5.03277">
        <ele>533.188354</ele>
        <time>2010-04-15T17:14:48Z</time>
      </trkpt>
      <trkpt lat="44.4547" lon="5.03266">
        <ele>531.746338</ele>
        <time>2010-04-15T17:15:00Z</time>
      </trkpt>
      <trkpt lat="44.45464" lon="5.0325">
        <ele>529.82373</ele>
        <time>2010-04-15T17:15:13Z</time>
      </trkpt>
      <trkpt lat="44.45463" lon="5.0325">
        <ele>529.34314</ele>
        <time>2010-04-15T17:15:14Z</time>
      </trkpt>
      <trkpt lat="44.45461" lon="5.03244">
        <ele>528.862549</ele>
        <time>2010-04-15T17:15:18Z</time>
      </trkpt>
      <trkpt lat="44.45449" lon="5.03224">
        <ele>527.42041</ele>
        <time>2010-04-15T17:15:38Z</time>
      </trkpt>
      <trkpt lat="44.45437" lon="5.03202">
        <ele>527.42041</ele>
        <time>2010-04-15T17:15:58Z</time>
      </trkpt>
      <trkpt lat="44.45426" lon="5.03187">
        <ele>526.939819</ele>
        <time>2010-04-15T17:16:15Z</time>
      </trkpt>
      <trkpt lat="44.45412" lon="5.03168">
        <ele>527.901001</ele>
        <time>2010-04-15T17:16:34Z</time>
      </trkpt>
      <trkpt lat="44.45408" lon="5.03164">
        <ele>528.862549</ele>
        <time>2010-04-15T17:16:39Z</time>
      </trkpt>
      <trkpt lat="44.45404" lon="5.03157">
        <ele>529.34314</ele>
        <time>2010-04-15T17:16:46Z</time>
      </trkpt>
      <trkpt lat="44.45398" lon="5.03148">
        <ele>530.304443</ele>
        <time>2010-04-15T17:16:54Z</time>
      </trkpt>
      <trkpt lat="44.45396" lon="5.03145">
        <ele>530.785156</ele>
        <time>2010-04-15T17:16:58Z</time>
      </trkpt>
      <trkpt lat="44.45385" lon="5.03131">
        <ele>531.265747</ele>
        <time>2010-04-15T17:17:13Z</time>
      </trkpt>
      <trkpt lat="44.45374" lon="5.03118">
        <ele>531.746338</ele>
        <time>2010-04-15T17:17:28Z</time>
      </trkpt>
      <trkpt lat="44.45369" lon="5.03115">
        <ele>531.746338</ele>
        <time>2010-04-15T17:17:33Z</time>
      </trkpt>
      <trkpt lat="44.45358" lon="5.03096">
        <ele>533.188354</ele>
        <time>2010-04-15T17:17:52Z</time>
      </trkpt>
      <trkpt lat="44.45351" lon="5.03082">
        <ele>533.188354</ele>
        <time>2010-04-15T17:18:05Z</time>
      </trkpt>
      <trkpt lat="44.4535" lon="5.03075">
        <ele>532.707764</ele>
        <time>2010-04-15T17:18:08Z</time>
      </trkpt>
      <trkpt lat="44.4535" lon="5.03072">
        <ele>532.227051</ele>
        <time>2010-04-15T17:18:11Z</time>
      </trkpt>
      <trkpt lat="44.45344" lon="5.03062">
        <ele>531.746338</ele>
        <time>2010-04-15T17:18:19Z</time>
      </trkpt>
      <trkpt lat="44.4534" lon="5.03053">
        <ele>531.265747</ele>
        <time>2010-04-15T17:18:24Z</time>
      </trkpt>
      <trkpt lat="44.45337" lon="5.03051">
        <ele>530.785156</ele>
        <time>2010-04-15T17:18:26Z</time>
      </trkpt>
      <trkpt lat="44.45334" lon="5.03042">
        <ele>530.304443</ele>
        <time>2010-04-15T17:18:35Z</time>
      </trkpt>
      <trkpt lat="44.45326" lon="5.03025">
        <ele>529.34314</ele>
        <time>2010-04-15T17:18:50Z</time>
      </trkpt>
      <trkpt lat="44.45326" lon="5.03023">
        <ele>529.34314</ele>
        <time>2010-04-15T17:18:51Z</time>
      </trkpt>
      <trkpt lat="44.45321" lon="5.03011">
        <ele>528.862549</ele>
        <time>2010-04-15T17:19:05Z</time>
      </trkpt>
      <trkpt lat="44.45321" lon="5.03007">
        <ele>528.862549</ele>
        <time>2010-04-15T17:19:21Z</time>
      </trkpt>
      <trkpt lat="44.45321" lon="5.02997">
        <ele>528.862549</ele>
        <time>2010-04-15T17:19:36Z</time>
      </trkpt>
      <trkpt lat="44.45314" lon="5.02991">
        <ele>527.42041</ele>
        <time>2010-04-15T17:19:45Z</time>
      </trkpt>
      <trkpt lat="44.45312" lon="5.02989">
        <ele>526.939819</ele>
        <time>2010-04-15T17:19:48Z</time>
      </trkpt>
      <trkpt lat="44.4531" lon="5.02985">
        <ele>525.978394</ele>
        <time>2010-04-15T17:19:52Z</time>
      </trkpt>
      <trkpt lat="44.45309" lon="5.0298">
        <ele>525.978394</ele>
        <time>2010-04-15T17:19:55Z</time>
      </trkpt>
      <trkpt lat="44.45303" lon="5.02959">
        <ele>523.575195</ele>
        <time>2010-04-15T17:20:11Z</time>
      </trkpt>
      <trkpt lat="44.45301" lon="5.02949">
        <ele>522.613892</ele>
        <time>2010-04-15T17:20:18Z</time>
      </trkpt>
      <trkpt lat="44.45296" lon="5.02931">
        <ele>519.249268</ele>
        <time>2010-04-15T17:20:35Z</time>
      </trkpt>
      <trkpt lat="44.45292" lon="5.02926">
        <ele>517.807251</ele>
        <time>2010-04-15T17:20:41Z</time>
      </trkpt>
      <trkpt lat="44.45283" lon="5.02913">
        <ele>514.92334</ele>
        <time>2010-04-15T17:20:56Z</time>
      </trkpt>
      <trkpt lat="44.45277" lon="5.02902">
        <ele>512.52002</ele>
        <time>2010-04-15T17:21:11Z</time>
      </trkpt>
      <trkpt lat="44.45271" lon="5.02891">
        <ele>510.116699</ele>
        <time>2010-04-15T17:21:28Z</time>
      </trkpt>
      <trkpt lat="44.4526" lon="5.02894">
        <ele>507.232788</ele>
        <time>2010-04-15T17:21:44Z</time>
      </trkpt>
      <trkpt lat="44.45252" lon="5.02887">
        <ele>503.868164</ele>
        <time>2010-04-15T17:21:58Z</time>
      </trkpt>
      <trkpt lat="44.45244" lon="5.02874">
        <ele>500.984131</ele>
        <time>2010-04-15T17:22:16Z</time>
      </trkpt>
      <trkpt lat="44.45243" lon="5.02866">
        <ele>499.542236</ele>
        <time>2010-04-15T17:22:22Z</time>
      </trkpt>
      <trkpt lat="44.45239" lon="5.02854">
        <ele>497.619629</ele>
        <time>2010-04-15T17:22:39Z</time>
      </trkpt>
      <trkpt lat="44.45234" lon="5.02846">
        <ele>495.216187</ele>
        <time>2010-04-15T17:22:56Z</time>
      </trkpt>
      <trkpt lat="44.4523" lon="5.02837">
        <ele>493.293579</ele>
        <time>2010-04-15T17:23:14Z</time>
      </trkpt>
      <trkpt lat="44.45227" lon="5.0282">
        <ele>490.40979</ele>
        <time>2010-04-15T17:23:36Z</time>
      </trkpt>
      <trkpt lat="44.45223" lon="5.02804">
        <ele>488.00647</ele>
        <time>2010-04-15T17:23:54Z</time>
      </trkpt>
      <trkpt lat="44.45219" lon="5.02784">
        <ele>485.122437</ele>
        <time>2010-04-15T17:24:13Z</time>
      </trkpt>
      <trkpt lat="44.45212" lon="5.02767">
        <ele>482.238525</ele>
        <time>2010-04-15T17:24:32Z</time>
      </trkpt>
      <trkpt lat="44.45204" lon="5.0275">
        <ele>479.354492</ele>
        <time>2010-04-15T17:24:51Z</time>
      </trkpt>
      <trkpt lat="44.452" lon="5.02733">
        <ele>477.431885</ele>
        <time>2010-04-15T17:25:07Z</time>
      </trkpt>
      <trkpt lat="44.45195" lon="5.02723">
        <ele>475.509277</ele>
        <time>2010-04-15T17:25:24Z</time>
      </trkpt>
      <trkpt lat="44.45186" lon="5.02704">
        <ele>472.625366</ele>
        <time>2010-04-15T17:25:47Z</time>
      </trkpt>
      <trkpt lat="44.4518" lon="5.02692">
        <ele>470.221924</ele>
        <time>2010-04-15T17:26:03Z</time>
      </trkpt>
      <trkpt lat="44.45174" lon="5.02675">
        <ele>467.338135</ele>
        <time>2010-04-15T17:26:20Z</time>
      </trkpt>
      <trkpt lat="44.4517" lon="5.02658">
        <ele>464.934814</ele>
        <time>2010-04-15T17:26:37Z</time>
      </trkpt>
      <trkpt lat="44.4517" lon="5.02656">
        <ele>464.934814</ele>
        <time>2010-04-15T17:26:38Z</time>
      </trkpt>
      <trkpt lat="44.45166" lon="5.02644">
        <ele>463.012085</ele>
        <time>2010-04-15T17:26:52Z</time>
      </trkpt>
      <trkpt lat="44.45158" lon="5.02642">
        <ele>461.089478</ele>
        <time>2010-04-15T17:27:06Z</time>
      </trkpt>
      <trkpt lat="44.45144" lon="5.02634">
        <ele>458.205566</ele>
        <time>2010-04-15T17:27:25Z</time>
      </trkpt>
      <trkpt lat="44.45131" lon="5.02632">
        <ele>455.321533</ele>
        <time>2010-04-15T17:27:42Z</time>
      </trkpt>
      <trkpt lat="44.45121" lon="5.02628">
        <ele>452.437622</ele>
        <time>2010-04-15T17:27:58Z</time>
      </trkpt>
      <trkpt lat="44.45113" lon="5.02624">
        <ele>449.553711</ele>
        <time>2010-04-15T17:28:12Z</time>
      </trkpt>
      <trkpt lat="44.45105" lon="5.02618">
        <ele>447.150269</ele>
        <time>2010-04-15T17:28:27Z</time>
      </trkpt>
      <trkpt lat="44.45096" lon="5.02609">
        <ele>445.227661</ele>
        <time>2010-04-15T17:28:42Z</time>
      </trkpt>
      <trkpt lat="44.45087" lon="5.02603">
        <ele>443.305054</ele>
        <time>2010-04-15T17:28:58Z</time>
      </trkpt>
      <trkpt lat="44.45079" lon="5.02599">
        <ele>442.343872</ele>
        <time>2010-04-15T17:29:09Z</time>
      </trkpt>
      <trkpt lat="44.45068" lon="5.02596">
        <ele>440.421265</ele>
        <time>2010-04-15T17:29:26Z</time>
      </trkpt>
      <trkpt lat="44.45061" lon="5.02592">
        <ele>439.459717</ele>
        <time>2010-04-15T17:29:41Z</time>
      </trkpt>
      <trkpt lat="44.45049" lon="5.02577">
        <ele>438.017822</ele>
        <time>2010-04-15T17:29:59Z</time>
      </trkpt>
      <trkpt lat="44.45047" lon="5.02574">
        <ele>438.017822</ele>
        <time>2010-04-15T17:30:02Z</time>
      </trkpt>
      <trkpt lat="44.45038" lon="5.02563">
        <ele>436.095215</ele>
        <time>2010-04-15T17:30:22Z</time>
      </trkpt>
      <trkpt lat="44.45029" lon="5.02543">
        <ele>433.211304</ele>
        <time>2010-04-15T17:30:42Z</time>
      </trkpt>
      <trkpt lat="44.45028" lon="5.02533">
        <ele>433.211304</ele>
        <time>2010-04-15T17:30:49Z</time>
      </trkpt>
      <trkpt lat="44.45034" lon="5.02512">
        <ele>430.807983</ele>
        <time>2010-04-15T17:31:06Z</time>
      </trkpt>
      <trkpt lat="44.45032" lon="5.0249">
        <ele>427.443359</ele>
        <time>2010-04-15T17:31:24Z</time>
      </trkpt>
      <trkpt lat="44.45033" lon="5.02462">
        <ele>425.040161</ele>
        <time>2010-04-15T17:31:44Z</time>
      </trkpt>
      <trkpt lat="44.45022" lon="5.02464">
        <ele>422.156006</ele>
        <time>2010-04-15T17:32:02Z</time>
      </trkpt>
      <trkpt lat="44.45009" lon="5.02472">
        <ele>419.272217</ele>
        <time>2010-04-15T17:32:21Z</time>
      </trkpt>
      <trkpt lat="44.45001" lon="5.02476">
        <ele>416.868896</ele>
        <time>2010-04-15T17:32:36Z</time>
      </trkpt>
      <trkpt lat="44.44993" lon="5.02483">
        <ele>414.946167</ele>
        <time>2010-04-15T17:32:53Z</time>
      </trkpt>
      <trkpt lat="44.44988" lon="5.02491">
        <ele>413.504272</ele>
        <time>2010-04-15T17:33:08Z</time>
      </trkpt>
      <trkpt lat="44.44986" lon="5.02498">
        <ele>412.542847</ele>
        <time>2010-04-15T17:33:14Z</time>
      </trkpt>
      <trkpt lat="44.4498" lon="5.02509">
        <ele>410.139648</ele>
        <time>2010-04-15T17:33:31Z</time>
      </trkpt>
      <trkpt lat="44.44977" lon="5.02514">
        <ele>409.178345</ele>
        <time>2010-04-15T17:33:40Z</time>
      </trkpt>
      <trkpt lat="44.44973" lon="5.02527">
        <ele>406.774902</ele>
        <time>2010-04-15T17:33:56Z</time>
      </trkpt>
      <trkpt lat="44.44966" lon="5.02533">
        <ele>404.852295</ele>
        <time>2010-04-15T17:34:10Z</time>
      </trkpt>
      <trkpt lat="44.44961" lon="5.02535">
        <ele>403.891113</ele>
        <time>2010-04-15T17:34:17Z</time>
      </trkpt>
      <trkpt lat="44.44948" lon="5.02543">
        <ele>401.487793</ele>
        <time>2010-04-15T17:34:33Z</time>
      </trkpt>
      <trkpt lat="44.44935" lon="5.02543">
        <ele>399.565063</ele>
        <time>2010-04-15T17:34:51Z</time>
      </trkpt>
      <trkpt lat="44.44928" lon="5.02542">
        <ele>399.084351</ele>
        <time>2010-04-15T17:34:59Z</time>
      </trkpt>
      <trkpt lat="44.44919" lon="5.02529">
        <ele>398.60376</ele>
        <time>2010-04-15T17:35:11Z</time>
      </trkpt>
      <trkpt lat="44.449" lon="5.02516">
        <ele>397.642456</ele>
        <time>2010-04-15T17:35:33Z</time>
      </trkpt>
      <trkpt lat="44.44898" lon="5.02515">
        <ele>397.642456</ele>
        <time>2010-04-15T17:35:35Z</time>
      </trkpt>
      <trkpt lat="44.44888" lon="5.02509">
        <ele>397.642456</ele>
        <time>2010-04-15T17:35:45Z</time>
      </trkpt>
      <trkpt lat="44.44882" lon="5.02506">
        <ele>398.123169</ele>
        <time>2010-04-15T17:35:53Z</time>
      </trkpt>
      <trkpt lat="44.4487" lon="5.025">
        <ele>398.60376</ele>
        <time>2010-04-15T17:36:06Z</time>
      </trkpt>
      <trkpt lat="44.44848" lon="5.02496">
        <ele>396.200562</ele>
        <time>2010-04-15T17:36:26Z</time>
      </trkpt>
      <trkpt lat="44.44834" lon="5.02482">
        <ele>393.797241</ele>
        <time>2010-04-15T17:36:43Z</time>
      </trkpt>
      <trkpt lat="44.44828" lon="5.02479">
        <ele>393.316528</ele>
        <time>2010-04-15T17:36:50Z</time>
      </trkpt>
      <trkpt lat="44.44807" lon="5.02478">
        <ele>391.393799</ele>
        <time>2010-04-15T17:37:09Z</time>
      </trkpt>
      <trkpt lat="44.44802" lon="5.02475">
        <ele>390.913208</ele>
        <time>2010-04-15T17:37:14Z</time>
      </trkpt>
      <trkpt lat="44.44796" lon="5.02473">
        <ele>390.432617</ele>
        <time>2010-04-15T17:37:20Z</time>
      </trkpt>
      <trkpt lat="44.44794" lon="5.02469">
        <ele>390.432617</ele>
        <time>2010-04-15T17:37:23Z</time>
      </trkpt>
      <trkpt lat="44.44785" lon="5.02441">
        <ele>388.51001</ele>
        <time>2010-04-15T17:37:39Z</time>
      </trkpt>
      <trkpt lat="44.4478" lon="5.0243">
        <ele>387.548584</ele>
        <time>2010-04-15T17:37:47Z</time>
      </trkpt>
      <trkpt lat="44.44767" lon="5.02427">
        <ele>387.067993</ele>
        <time>2010-04-15T17:38:01Z</time>
      </trkpt>
      <trkpt lat="44.4476" lon="5.02426">
        <ele>385.625977</ele>
        <time>2010-04-15T17:38:08Z</time>
      </trkpt>
      <trkpt lat="44.44744" lon="5.02428">
        <ele>385.145386</ele>
        <time>2010-04-15T17:38:23Z</time>
      </trkpt>
      <trkpt lat="44.44743" lon="5.02428">
        <ele>384.664795</ele>
        <time>2010-04-15T17:38:24Z</time>
      </trkpt>
      <trkpt lat="44.4473" lon="5.02431">
        <ele>384.184082</ele>
        <time>2010-04-15T17:38:35Z</time>
      </trkpt>
      <trkpt lat="44.44711" lon="5.02437">
        <ele>383.222656</ele>
        <time>2010-04-15T17:38:52Z</time>
      </trkpt>
      <trkpt lat="44.44706" lon="5.02438">
        <ele>382.742065</ele>
        <time>2010-04-15T17:38:56Z</time>
      </trkpt>
      <trkpt lat="44.44678" lon="5.02441">
        <ele>380.819458</ele>
        <time>2010-04-15T17:39:22Z</time>
      </trkpt>
      <trkpt lat="44.44663" lon="5.02431">
        <ele>379.377441</ele>
        <time>2010-04-15T17:39:37Z</time>
      </trkpt>
      <trkpt lat="44.4466" lon="5.02426">
        <ele>379.377441</ele>
        <time>2010-04-15T17:39:41Z</time>
      </trkpt>
      <trkpt lat="44.44651" lon="5.02415">
        <ele>379.377441</ele>
        <time>2010-04-15T17:39:51Z</time>
      </trkpt>
      <trkpt lat="44.44648" lon="5.02414">
        <ele>378.896851</ele>
        <time>2010-04-15T17:39:54Z</time>
      </trkpt>
      <trkpt lat="44.44637" lon="5.02404">
        <ele>378.896851</ele>
        <time>2010-04-15T17:40:06Z</time>
      </trkpt>
      <trkpt lat="44.44635" lon="5.02402">
        <ele>378.896851</ele>
        <time>2010-04-15T17:40:09Z</time>
      </trkpt>
      <trkpt lat="44.44624" lon="5.02395">
        <ele>378.416138</ele>
        <time>2010-04-15T17:40:20Z</time>
      </trkpt>
      <trkpt lat="44.44621" lon="5.02393">
        <ele>378.896851</ele>
        <time>2010-04-15T17:40:23Z</time>
      </trkpt>
      <trkpt lat="44.44607" lon="5.02381">
        <ele>377.454834</ele>
        <time>2010-04-15T17:40:38Z</time>
      </trkpt>
      <trkpt lat="44.44595" lon="5.02366">
        <ele>377.454834</ele>
        <time>2010-04-15T17:40:53Z</time>
      </trkpt>
      <trkpt lat="44.44593" lon="5.0236">
        <ele>376.49353</ele>
        <time>2010-04-15T17:40:57Z</time>
      </trkpt>
      <trkpt lat="44.44587" lon="5.02325">
        <ele>375.051514</ele>
        <time>2010-04-15T17:41:20Z</time>
      </trkpt>
      <trkpt lat="44.44587" lon="5.0232">
        <ele>374.090088</ele>
        <time>2010-04-15T17:41:23Z</time>
      </trkpt>
      <trkpt lat="44.44594" lon="5.02298">
        <ele>373.609497</ele>
        <time>2010-04-15T17:41:41Z</time>
      </trkpt>
      <trkpt lat="44.446" lon="5.02276">
        <ele>373.609497</ele>
        <time>2010-04-15T17:41:57Z</time>
      </trkpt>
      <trkpt lat="44.44613" lon="5.02244">
        <ele>374.090088</ele>
        <time>2010-04-15T17:42:20Z</time>
      </trkpt>
      <trkpt lat="44.44616" lon="5.02232">
        <ele>373.609497</ele>
        <time>2010-04-15T17:42:28Z</time>
      </trkpt>
      <trkpt lat="44.4462" lon="5.02223">
        <ele>372.648193</ele>
        <time>2010-04-15T17:42:36Z</time>
      </trkpt>
      <trkpt lat="44.44627" lon="5.02199">
        <ele>370.725586</ele>
        <time>2010-04-15T17:42:55Z</time>
      </trkpt>
      <trkpt lat="44.44635" lon="5.02173">
        <ele>368.322266</ele>
        <time>2010-04-15T17:43:15Z</time>
      </trkpt>
      <trkpt lat="44.44638" lon="5.02161">
        <ele>367.360962</ele>
        <time>2010-04-15T17:43:25Z</time>
      </trkpt>
      <trkpt lat="44.44644" lon="5.02132">
        <ele>364.476929</ele>
        <time>2010-04-15T17:43:50Z</time>
      </trkpt>
      <trkpt lat="44.44639" lon="5.02133">
        <ele>363.996338</ele>
        <time>2010-04-15T17:43:57Z</time>
      </trkpt>
      <trkpt lat="44.44622" lon="5.02148">
        <ele>363.035034</ele>
        <time>2010-04-15T17:44:16Z</time>
      </trkpt>
      <trkpt lat="44.44618" lon="5.02154">
        <ele>362.554321</ele>
        <time>2010-04-15T17:44:23Z</time>
      </trkpt>
      <trkpt lat="44.44602" lon="5.0217">
        <ele>361.112427</ele>
        <time>2010-04-15T17:44:42Z</time>
      </trkpt>
      <trkpt lat="44.44588" lon="5.02184">
        <ele>359.67041</ele>
        <time>2010-04-15T17:44:59Z</time>
      </trkpt>
      <trkpt lat="44.44575" lon="5.02192">
        <ele>359.189697</ele>
        <time>2010-04-15T17:45:15Z</time>
      </trkpt>
      <trkpt lat="44.4457" lon="5.02193">
        <ele>358.708984</ele>
        <time>2010-04-15T17:45:20Z</time>
      </trkpt>
      <trkpt lat="44.44567" lon="5.02195">
        <ele>358.228394</ele>
        <time>2010-04-15T17:45:23Z</time>
      </trkpt>
      <trkpt lat="44.44552" lon="5.02207">
        <ele>355.825195</ele>
        <time>2010-04-15T17:45:42Z</time>
      </trkpt>
      <trkpt lat="44.44541" lon="5.0222">
        <ele>355.344482</ele>
        <time>2010-04-15T17:45:57Z</time>
      </trkpt>
      <trkpt lat="44.4453" lon="5.02237">
        <ele>355.344482</ele>
        <time>2010-04-15T17:46:12Z</time>
      </trkpt>
      <trkpt lat="44.44515" lon="5.02254">
        <ele>353.902588</ele>
        <time>2010-04-15T17:46:31Z</time>
      </trkpt>
      <trkpt lat="44.44502" lon="5.02266">
        <ele>352.460571</ele>
        <time>2010-04-15T17:46:48Z</time>
      </trkpt>
      <trkpt lat="44.44487" lon="5.02276">
        <ele>350.057251</ele>
        <time>2010-04-15T17:47:05Z</time>
      </trkpt>
      <trkpt lat="44.4447" lon="5.02282">
        <ele>347.173218</ele>
        <time>2010-04-15T17:47:27Z</time>
      </trkpt>
      <trkpt lat="44.44453" lon="5.02299">
        <ele>345.731323</ele>
        <time>2010-04-15T17:47:45Z</time>
      </trkpt>
      <trkpt lat="44.4444" lon="5.02311">
        <ele>344.289429</ele>
        <time>2010-04-15T17:48:02Z</time>
      </trkpt>
      <trkpt lat="44.44426" lon="5.02329">
        <ele>342.84729</ele>
        <time>2010-04-15T17:48:18Z</time>
      </trkpt>
      <trkpt lat="44.44406" lon="5.02341">
        <ele>340.444092</ele>
        <time>2010-04-15T17:48:36Z</time>
      </trkpt>
      <trkpt lat="44.4439" lon="5.02352">
        <ele>337.560059</ele>
        <time>2010-04-15T17:48:54Z</time>
      </trkpt>
      <trkpt lat="44.44386" lon="5.02363">
        <ele>337.560059</ele>
        <time>2010-04-15T17:49:03Z</time>
      </trkpt>
      <trkpt lat="44.44375" lon="5.02385">
        <ele>337.560059</ele>
        <time>2010-04-15T17:49:19Z</time>
      </trkpt>
      <trkpt lat="44.44364" lon="5.02407">
        <ele>337.560059</ele>
        <time>2010-04-15T17:49:37Z</time>
      </trkpt>
      <trkpt lat="44.44352" lon="5.02421">
        <ele>339.002075</ele>
        <time>2010-04-15T17:49:57Z</time>
      </trkpt>
      <trkpt lat="44.44349" lon="5.02422">
        <ele>339.002075</ele>
        <time>2010-04-15T17:50:25Z</time>
      </trkpt>
      <trkpt lat="44.44348" lon="5.02422">
        <ele>338.521484</ele>
        <time>2010-04-15T17:50:38Z</time>
      </trkpt>
      <trkpt lat="44.44344" lon="5.02408">
        <ele>337.560059</ele>
        <time>2010-04-15T17:50:52Z</time>
      </trkpt>
      <trkpt lat="44.44346" lon="5.024">
        <ele>337.560059</ele>
        <time>2010-04-15T17:50:57Z</time>
      </trkpt>
      <trkpt lat="44.44346" lon="5.02392">
        <ele>337.079468</ele>
        <time>2010-04-15T17:51:03Z</time>
      </trkpt>
      <trkpt lat="44.44346" lon="5.02388">
        <ele>337.079468</ele>
        <time>2010-04-15T17:51:06Z</time>
      </trkpt>
      <trkpt lat="44.44352" lon="5.02373">
        <ele>337.079468</ele>
        <time>2010-04-15T17:51:17Z</time>
      </trkpt>
      <trkpt lat="44.44361" lon="5.02371">
        <ele>336.598877</ele>
        <time>2010-04-15T17:51:24Z</time>
      </trkpt>
      <trkpt lat="44.44366" lon="5.02368">
        <ele>335.637329</ele>
        <time>2010-04-15T17:51:37Z</time>
      </trkpt>
      <trkpt lat="44.44364" lon="5.0237">
        <ele>336.598877</ele>
        <time>2010-04-15T17:51:49Z</time>
      </trkpt>
      <trkpt lat="44.44369" lon="5.02382">
        <ele>337.560059</ele>
        <time>2010-04-15T17:52:04Z</time>
      </trkpt>
      <trkpt lat="44.44366" lon="5.02387">
        <ele>337.560059</ele>
        <time>2010-04-15T17:52:19Z</time>
      </trkpt>
      <trkpt lat="44.44365" lon="5.02388">
        <ele>337.560059</ele>
        <time>2010-04-15T17:52:46Z</time>
      </trkpt>
      <trkpt lat="44.44359" lon="5.02387">
        <ele>337.560059</ele>
        <time>2010-04-15T17:53:04Z</time>
      </trkpt>
      <trkpt lat="44.4435" lon="5.02393">
        <ele>337.560059</ele>
        <time>2010-04-15T17:53:17Z</time>
      </trkpt>
      <trkpt lat="44.44349" lon="5.02392">
        <ele>336.598877</ele>
        <time>2010-04-15T17:53:27Z</time>
      </trkpt>
      <trkpt lat="44.44345" lon="5.02389">
        <ele>337.079468</ele>
        <time>2010-04-15T17:53:35Z</time>
      </trkpt>
      <trkpt lat="44.44335" lon="5.02392">
        <ele>337.079468</ele>
        <time>2010-04-15T17:53:46Z</time>
      </trkpt>
      <trkpt lat="44.44334" lon="5.02392">
        <ele>337.560059</ele>
        <time>2010-04-15T17:53:47Z</time>
      </trkpt>
      <trkpt lat="44.44328" lon="5.02397">
        <ele>338.040771</ele>
        <time>2010-04-15T17:53:53Z</time>
      </trkpt>
      <trkpt lat="44.44321" lon="5.02395">
        <ele>337.560059</ele>
        <time>2010-04-15T17:53:59Z</time>
      </trkpt>
      <trkpt lat="44.44315" lon="5.02389">
        <ele>337.560059</ele>
        <time>2010-04-15T17:54:05Z</time>
      </trkpt>
      <trkpt lat="44.44301" lon="5.02374">
        <ele>337.079468</ele>
        <time>2010-04-15T17:54:23Z</time>
      </trkpt>
      <trkpt lat="44.44297" lon="5.02371">
        <ele>337.560059</ele>
        <time>2010-04-15T17:54:27Z</time>
      </trkpt>
      <trkpt lat="44.44289" lon="5.02366">
        <ele>337.079468</ele>
        <time>2010-04-15T17:54:35Z</time>
      </trkpt>
      <trkpt lat="44.44283" lon="5.02358">
        <ele>337.560059</ele>
        <time>2010-04-15T17:54:43Z</time>
      </trkpt>
      <trkpt lat="44.4428" lon="5.02354">
        <ele>337.560059</ele>
        <time>2010-04-15T17:54:47Z</time>
      </trkpt>
      <trkpt lat="44.44266" lon="5.0234">
        <ele>337.079468</ele>
        <time>2010-04-15T17:55:03Z</time>
      </trkpt>
      <trkpt lat="44.44259" lon="5.02333">
        <ele>337.560059</ele>
        <time>2010-04-15T17:55:11Z</time>
      </trkpt>
      <trkpt lat="44.44257" lon="5.0233">
        <ele>337.560059</ele>
        <time>2010-04-15T17:55:14Z</time>
      </trkpt>
      <trkpt lat="44.44252" lon="5.02325">
        <ele>337.079468</ele>
        <time>2010-04-15T17:55:20Z</time>
      </trkpt>
      <trkpt lat="44.44238" lon="5.02313">
        <ele>337.560059</ele>
        <time>2010-04-15T17:55:40Z</time>
      </trkpt>
      <trkpt lat="44.44234" lon="5.02313">
        <ele>337.079468</ele>
        <time>2010-04-15T17:56:03Z</time>
      </trkpt>
      <trkpt lat="44.44221" lon="5.02315">
        <ele>337.079468</ele>
        <time>2010-04-15T17:56:17Z</time>
      </trkpt>
      <trkpt lat="44.44209" lon="5.02319">
        <ele>336.598877</ele>
        <time>2010-04-15T17:56:34Z</time>
      </trkpt>
      <trkpt lat="44.44195" lon="5.0233">
        <ele>335.637329</ele>
        <time>2010-04-15T17:56:51Z</time>
      </trkpt>
      <trkpt lat="44.44183" lon="5.0234">
        <ele>335.156738</ele>
        <time>2010-04-15T17:57:07Z</time>
      </trkpt>
      <trkpt lat="44.44167" lon="5.02351">
        <ele>333.714722</ele>
        <time>2010-04-15T17:57:24Z</time>
      </trkpt>
      <trkpt lat="44.44154" lon="5.02362">
        <ele>332.75354</ele>
        <time>2010-04-15T17:57:39Z</time>
      </trkpt>
      <trkpt lat="44.44141" lon="5.02368">
        <ele>331.311523</ele>
        <time>2010-04-15T17:57:51Z</time>
      </trkpt>
      <trkpt lat="44.44139" lon="5.02369">
        <ele>331.311523</ele>
        <time>2010-04-15T17:57:52Z</time>
      </trkpt>
      <trkpt lat="44.4413" lon="5.02379">
        <ele>329.869507</ele>
        <time>2010-04-15T17:58:07Z</time>
      </trkpt>
      <trkpt lat="44.44112" lon="5.02397">
        <ele>327.946777</ele>
        <time>2010-04-15T17:58:29Z</time>
      </trkpt>
      <trkpt lat="44.44084" lon="5.02415">
        <ele>326.02417</ele>
        <time>2010-04-15T17:58:54Z</time>
      </trkpt>
      <trkpt lat="44.44068" lon="5.02423">
        <ele>325.543579</ele>
        <time>2010-04-15T17:59:07Z</time>
      </trkpt>
      <trkpt lat="44.4406" lon="5.02434">
        <ele>324.582275</ele>
        <time>2010-04-15T17:59:19Z</time>
      </trkpt>
      <trkpt lat="44.44052" lon="5.02449">
        <ele>324.582275</ele>
        <time>2010-04-15T17:59:33Z</time>
      </trkpt>
      <trkpt lat="44.44045" lon="5.0246">
        <ele>324.582275</ele>
        <time>2010-04-15T17:59:44Z</time>
      </trkpt>
      <trkpt lat="44.44043" lon="5.02466">
        <ele>324.582275</ele>
        <time>2010-04-15T17:59:48Z</time>
      </trkpt>
      <trkpt lat="44.44039" lon="5.02486">
        <ele>325.062988</ele>
        <time>2010-04-15T18:00:07Z</time>
      </trkpt>
      <trkpt lat="44.44035" lon="5.02494">
        <ele>326.02417</ele>
        <time>2010-04-15T18:00:21Z</time>
      </trkpt>
      <trkpt lat="44.44031" lon="5.02497">
        <ele>326.985596</ele>
        <time>2010-04-15T18:00:38Z</time>
      </trkpt>
      <trkpt lat="44.44031" lon="5.02497">
        <ele>326.985596</ele>
        <time>2010-04-15T18:00:40Z</time>
      </trkpt>
    </trkseg>
  </trk>
</gpx>